<?xml version="1.0" encoding="UTF-8" standalone="no" ?>
<gpx xmlns="http://www.topografix.com/GPX/1/1" xmlns:xsi="http://www.w3.org/2001/XMLSchema-instance" xsi:schemaLocation="http://www.topografix.com/GPX/1/1 http://www.topografix.com/GPX/1/1/gpx.xsd" version="1.1" creator="VisuGPX - https://www.visugpx.com">
  <metadata>
    <name> Sortie canoë Soco</name>
    <desc><![CDATA[Sortie en canoë organisé par Socomec du 10/09/2017]]></desc>
  </metadata>
  <trk>
    <name><![CDATA[20170912144100-TCvSY]]></name>
    <trkseg>
      <trkpt lat="48.44494" lon="7.73223">
        <ele>149</ele>
        <time>2017-09-10T08:20:36Z</time>
      </trkpt>
      <trkpt lat="48.44487" lon="7.73198">
        <ele>148.5</ele>
        <time>2017-09-10T08:20:48Z</time>
      </trkpt>
      <trkpt lat="48.44494" lon="7.73224">
        <ele>149</ele>
        <time>2017-09-10T08:30:20Z</time>
      </trkpt>
      <trkpt lat="48.44512" lon="7.73218">
        <ele>148.4</ele>
        <time>2017-09-10T09:00:13Z</time>
      </trkpt>
      <trkpt lat="48.44516" lon="7.73192">
        <ele>147.5</ele>
        <time>2017-09-10T09:03:50Z</time>
      </trkpt>
      <trkpt lat="48.44529" lon="7.73172">
        <ele>147.2</ele>
        <time>2017-09-10T09:04:04Z</time>
      </trkpt>
      <trkpt lat="48.44546" lon="7.73164">
        <ele>147</ele>
        <time>2017-09-10T09:06:28Z</time>
      </trkpt>
      <trkpt lat="48.44563" lon="7.73173">
        <ele>147.2</ele>
        <time>2017-09-10T09:06:52Z</time>
      </trkpt>
      <trkpt lat="48.44579" lon="7.73187">
        <ele>147.2</ele>
        <time>2017-09-10T09:07:16Z</time>
      </trkpt>
      <trkpt lat="48.44584" lon="7.73214">
        <ele>147</ele>
        <time>2017-09-10T09:12:45Z</time>
      </trkpt>
      <trkpt lat="48.44599" lon="7.7323">
        <ele>147.5</ele>
        <time>2017-09-10T09:13:34Z</time>
      </trkpt>
      <trkpt lat="48.44613" lon="7.73247">
        <ele>147.1</ele>
        <time>2017-09-10T09:13:51Z</time>
      </trkpt>
      <trkpt lat="48.44628" lon="7.73264">
        <ele>147</ele>
        <time>2017-09-10T09:14:06Z</time>
      </trkpt>
      <trkpt lat="48.44646" lon="7.73265">
        <ele>147.1</ele>
        <time>2017-09-10T09:14:18Z</time>
      </trkpt>
      <trkpt lat="48.4466" lon="7.73246">
        <ele>147</ele>
        <time>2017-09-10T09:14:28Z</time>
      </trkpt>
      <trkpt lat="48.44673" lon="7.73225">
        <ele>147</ele>
        <time>2017-09-10T09:14:39Z</time>
      </trkpt>
      <trkpt lat="48.44691" lon="7.73216">
        <ele>147.2</ele>
        <time>2017-09-10T09:14:49Z</time>
      </trkpt>
      <trkpt lat="48.44709" lon="7.73223">
        <ele>147</ele>
        <time>2017-09-10T09:15:03Z</time>
      </trkpt>
      <trkpt lat="48.44724" lon="7.73239">
        <ele>147.6</ele>
        <time>2017-09-10T09:15:13Z</time>
      </trkpt>
      <trkpt lat="48.44735" lon="7.73262">
        <ele>148</ele>
        <time>2017-09-10T09:15:27Z</time>
      </trkpt>
      <trkpt lat="48.44746" lon="7.73284">
        <ele>147.8</ele>
        <time>2017-09-10T09:15:44Z</time>
      </trkpt>
      <trkpt lat="48.44759" lon="7.73303">
        <ele>147.1</ele>
        <time>2017-09-10T09:15:57Z</time>
      </trkpt>
      <trkpt lat="48.44774" lon="7.7332">
        <ele>147.1</ele>
        <time>2017-09-10T09:16:13Z</time>
      </trkpt>
      <trkpt lat="48.44789" lon="7.73335">
        <ele>147</ele>
        <time>2017-09-10T09:16:30Z</time>
      </trkpt>
      <trkpt lat="48.44806" lon="7.73348">
        <ele>147</ele>
        <time>2017-09-10T09:16:43Z</time>
      </trkpt>
      <trkpt lat="48.44824" lon="7.73355">
        <ele>147.1</ele>
        <time>2017-09-10T09:16:53Z</time>
      </trkpt>
      <trkpt lat="48.44843" lon="7.73357">
        <ele>147.1</ele>
        <time>2017-09-10T09:17:06Z</time>
      </trkpt>
      <trkpt lat="48.44862" lon="7.73367">
        <ele>147.2</ele>
        <time>2017-09-10T09:17:19Z</time>
      </trkpt>
      <trkpt lat="48.4488" lon="7.73372">
        <ele>147.4</ele>
        <time>2017-09-10T09:17:30Z</time>
      </trkpt>
      <trkpt lat="48.44898" lon="7.73373">
        <ele>147.4</ele>
        <time>2017-09-10T09:17:43Z</time>
      </trkpt>
      <trkpt lat="48.44918" lon="7.73371">
        <ele>147.3</ele>
        <time>2017-09-10T09:17:55Z</time>
      </trkpt>
      <trkpt lat="48.44934" lon="7.73358">
        <ele>147</ele>
        <time>2017-09-10T09:18:11Z</time>
      </trkpt>
      <trkpt lat="48.44953" lon="7.7335">
        <ele>147.2</ele>
        <time>2017-09-10T09:18:26Z</time>
      </trkpt>
      <trkpt lat="48.44964" lon="7.73327">
        <ele>147.1</ele>
        <time>2017-09-10T09:18:41Z</time>
      </trkpt>
      <trkpt lat="48.44977" lon="7.73308">
        <ele>147</ele>
        <time>2017-09-10T09:18:53Z</time>
      </trkpt>
      <trkpt lat="48.44994" lon="7.73294">
        <ele>147.3</ele>
        <time>2017-09-10T09:19:06Z</time>
      </trkpt>
      <trkpt lat="48.45012" lon="7.73303">
        <ele>147.1</ele>
        <time>2017-09-10T09:19:20Z</time>
      </trkpt>
      <trkpt lat="48.45029" lon="7.73314">
        <ele>147</ele>
        <time>2017-09-10T09:19:34Z</time>
      </trkpt>
      <trkpt lat="48.45045" lon="7.73328">
        <ele>146.6</ele>
        <time>2017-09-10T09:19:49Z</time>
      </trkpt>
      <trkpt lat="48.45064" lon="7.73331">
        <ele>146.4</ele>
        <time>2017-09-10T09:20:01Z</time>
      </trkpt>
      <trkpt lat="48.45082" lon="7.73323">
        <ele>147</ele>
        <time>2017-09-10T09:20:15Z</time>
      </trkpt>
      <trkpt lat="48.45099" lon="7.73313">
        <ele>147.2</ele>
        <time>2017-09-10T09:20:25Z</time>
      </trkpt>
      <trkpt lat="48.45112" lon="7.73293">
        <ele>147</ele>
        <time>2017-09-10T09:20:38Z</time>
      </trkpt>
      <trkpt lat="48.45118" lon="7.73265">
        <ele>147</ele>
        <time>2017-09-10T09:20:50Z</time>
      </trkpt>
      <trkpt lat="48.45121" lon="7.73237">
        <ele>146.8</ele>
        <time>2017-09-10T09:21:02Z</time>
      </trkpt>
      <trkpt lat="48.45133" lon="7.73218">
        <ele>146.3</ele>
        <time>2017-09-10T09:21:21Z</time>
      </trkpt>
      <trkpt lat="48.45151" lon="7.73209">
        <ele>146.5</ele>
        <time>2017-09-10T09:21:36Z</time>
      </trkpt>
      <trkpt lat="48.45168" lon="7.73199">
        <ele>146.2</ele>
        <time>2017-09-10T09:21:57Z</time>
      </trkpt>
      <trkpt lat="48.45187" lon="7.73191">
        <ele>146.7</ele>
        <time>2017-09-10T09:22:21Z</time>
      </trkpt>
      <trkpt lat="48.45204" lon="7.73185">
        <ele>147</ele>
        <time>2017-09-10T09:22:37Z</time>
      </trkpt>
      <trkpt lat="48.4522" lon="7.73171">
        <ele>147</ele>
        <time>2017-09-10T09:22:55Z</time>
      </trkpt>
      <trkpt lat="48.45239" lon="7.73167">
        <ele>146.4</ele>
        <time>2017-09-10T09:23:04Z</time>
      </trkpt>
      <trkpt lat="48.45258" lon="7.73165">
        <ele>146</ele>
        <time>2017-09-10T09:23:16Z</time>
      </trkpt>
      <trkpt lat="48.45277" lon="7.73167">
        <ele>146</ele>
        <time>2017-09-10T09:23:29Z</time>
      </trkpt>
      <trkpt lat="48.45297" lon="7.73166">
        <ele>146</ele>
        <time>2017-09-10T09:23:40Z</time>
      </trkpt>
      <trkpt lat="48.45315" lon="7.73171">
        <ele>146.4</ele>
        <time>2017-09-10T09:23:51Z</time>
      </trkpt>
      <trkpt lat="48.45332" lon="7.7318">
        <ele>146.5</ele>
        <time>2017-09-10T09:24:03Z</time>
      </trkpt>
      <trkpt lat="48.45349" lon="7.7319">
        <ele>146.2</ele>
        <time>2017-09-10T09:24:17Z</time>
      </trkpt>
      <trkpt lat="48.45367" lon="7.73196">
        <ele>146.1</ele>
        <time>2017-09-10T09:24:34Z</time>
      </trkpt>
      <trkpt lat="48.45386" lon="7.73198">
        <ele>146.1</ele>
        <time>2017-09-10T09:24:56Z</time>
      </trkpt>
      <trkpt lat="48.45404" lon="7.73203">
        <ele>146.7</ele>
        <time>2017-09-10T09:25:14Z</time>
      </trkpt>
      <trkpt lat="48.45422" lon="7.73206">
        <ele>146.9</ele>
        <time>2017-09-10T09:25:26Z</time>
      </trkpt>
      <trkpt lat="48.45441" lon="7.73196">
        <ele>146.2</ele>
        <time>2017-09-10T09:25:37Z</time>
      </trkpt>
      <trkpt lat="48.45456" lon="7.73179">
        <ele>146.3</ele>
        <time>2017-09-10T09:25:50Z</time>
      </trkpt>
      <trkpt lat="48.45473" lon="7.73166">
        <ele>146</ele>
        <time>2017-09-10T09:26:05Z</time>
      </trkpt>
      <trkpt lat="48.4549" lon="7.73157">
        <ele>146.4</ele>
        <time>2017-09-10T09:26:21Z</time>
      </trkpt>
      <trkpt lat="48.45507" lon="7.73144">
        <ele>146.6</ele>
        <time>2017-09-10T09:26:39Z</time>
      </trkpt>
      <trkpt lat="48.45524" lon="7.73134">
        <ele>146.3</ele>
        <time>2017-09-10T09:26:57Z</time>
      </trkpt>
      <trkpt lat="48.45542" lon="7.73127">
        <ele>146.5</ele>
        <time>2017-09-10T09:27:16Z</time>
      </trkpt>
      <trkpt lat="48.45558" lon="7.73113">
        <ele>146.1</ele>
        <time>2017-09-10T09:27:33Z</time>
      </trkpt>
      <trkpt lat="48.45571" lon="7.73094">
        <ele>146.5</ele>
        <time>2017-09-10T09:27:52Z</time>
      </trkpt>
      <trkpt lat="48.45583" lon="7.73073">
        <ele>146</ele>
        <time>2017-09-10T09:28:14Z</time>
      </trkpt>
      <trkpt lat="48.45591" lon="7.73048">
        <ele>146.4</ele>
        <time>2017-09-10T09:28:38Z</time>
      </trkpt>
      <trkpt lat="48.45601" lon="7.73026">
        <ele>146.4</ele>
        <time>2017-09-10T09:28:58Z</time>
      </trkpt>
      <trkpt lat="48.45613" lon="7.73004">
        <ele>146.1</ele>
        <time>2017-09-10T09:29:19Z</time>
      </trkpt>
      <trkpt lat="48.45618" lon="7.72978">
        <ele>146.3</ele>
        <time>2017-09-10T09:29:43Z</time>
      </trkpt>
      <trkpt lat="48.45624" lon="7.72952">
        <ele>146.5</ele>
        <time>2017-09-10T09:30:02Z</time>
      </trkpt>
      <trkpt lat="48.45633" lon="7.72927">
        <ele>146.2</ele>
        <time>2017-09-10T09:30:20Z</time>
      </trkpt>
      <trkpt lat="48.45638" lon="7.72901">
        <ele>146</ele>
        <time>2017-09-10T09:30:34Z</time>
      </trkpt>
      <trkpt lat="48.45646" lon="7.72876">
        <ele>146.5</ele>
        <time>2017-09-10T09:30:47Z</time>
      </trkpt>
      <trkpt lat="48.45655" lon="7.72851">
        <ele>146.4</ele>
        <time>2017-09-10T09:30:59Z</time>
      </trkpt>
      <trkpt lat="48.45664" lon="7.72826">
        <ele>146.1</ele>
        <time>2017-09-10T09:31:15Z</time>
      </trkpt>
      <trkpt lat="48.45676" lon="7.72804">
        <ele>146</ele>
        <time>2017-09-10T09:31:28Z</time>
      </trkpt>
      <trkpt lat="48.45687" lon="7.7278">
        <ele>146.3</ele>
        <time>2017-09-10T09:31:42Z</time>
      </trkpt>
      <trkpt lat="48.45693" lon="7.72753">
        <ele>146.1</ele>
        <time>2017-09-10T09:31:57Z</time>
      </trkpt>
      <trkpt lat="48.45705" lon="7.72729">
        <ele>146.6</ele>
        <time>2017-09-10T09:32:10Z</time>
      </trkpt>
      <trkpt lat="48.45717" lon="7.72705">
        <ele>146.2</ele>
        <time>2017-09-10T09:32:19Z</time>
      </trkpt>
      <trkpt lat="48.45725" lon="7.72679">
        <ele>146.5</ele>
        <time>2017-09-10T09:32:30Z</time>
      </trkpt>
      <trkpt lat="48.45738" lon="7.72658">
        <ele>146.6</ele>
        <time>2017-09-10T09:32:41Z</time>
      </trkpt>
      <trkpt lat="48.45755" lon="7.72645">
        <ele>146.7</ele>
        <time>2017-09-10T09:32:55Z</time>
      </trkpt>
      <trkpt lat="48.45771" lon="7.72631">
        <ele>146.5</ele>
        <time>2017-09-10T09:33:15Z</time>
      </trkpt>
      <trkpt lat="48.45789" lon="7.72625">
        <ele>146.5</ele>
        <time>2017-09-10T09:33:33Z</time>
      </trkpt>
      <trkpt lat="48.45807" lon="7.72616">
        <ele>146.2</ele>
        <time>2017-09-10T09:33:57Z</time>
      </trkpt>
      <trkpt lat="48.45825" lon="7.7261">
        <ele>146</ele>
        <time>2017-09-10T09:34:19Z</time>
      </trkpt>
      <trkpt lat="48.45841" lon="7.72599">
        <ele>146.3</ele>
        <time>2017-09-10T09:34:37Z</time>
      </trkpt>
      <trkpt lat="48.45859" lon="7.7259">
        <ele>146.1</ele>
        <time>2017-09-10T09:34:55Z</time>
      </trkpt>
      <trkpt lat="48.45878" lon="7.72591">
        <ele>146.2</ele>
        <time>2017-09-10T09:35:14Z</time>
      </trkpt>
      <trkpt lat="48.45896" lon="7.72588">
        <ele>146.2</ele>
        <time>2017-09-10T09:35:36Z</time>
      </trkpt>
      <trkpt lat="48.45914" lon="7.72588">
        <ele>146.2</ele>
        <time>2017-09-10T09:36:01Z</time>
      </trkpt>
      <trkpt lat="48.45932" lon="7.72593">
        <ele>146.2</ele>
        <time>2017-09-10T09:36:24Z</time>
      </trkpt>
      <trkpt lat="48.45951" lon="7.72598">
        <ele>146.1</ele>
        <time>2017-09-10T09:37:00Z</time>
      </trkpt>
      <trkpt lat="48.45969" lon="7.72606">
        <ele>146.2</ele>
        <time>2017-09-10T09:37:15Z</time>
      </trkpt>
      <trkpt lat="48.45986" lon="7.72612">
        <ele>146</ele>
        <time>2017-09-10T09:37:31Z</time>
      </trkpt>
      <trkpt lat="48.46004" lon="7.72619">
        <ele>146.4</ele>
        <time>2017-09-10T09:37:54Z</time>
      </trkpt>
      <trkpt lat="48.46019" lon="7.72633">
        <ele>146.4</ele>
        <time>2017-09-10T09:38:11Z</time>
      </trkpt>
      <trkpt lat="48.46035" lon="7.72647">
        <ele>146.4</ele>
        <time>2017-09-10T09:38:27Z</time>
      </trkpt>
      <trkpt lat="48.46049" lon="7.72667">
        <ele>146.2</ele>
        <time>2017-09-10T09:38:41Z</time>
      </trkpt>
      <trkpt lat="48.46062" lon="7.72687">
        <ele>146.2</ele>
        <time>2017-09-10T09:38:57Z</time>
      </trkpt>
      <trkpt lat="48.46073" lon="7.72711">
        <ele>146.5</ele>
        <time>2017-09-10T09:39:12Z</time>
      </trkpt>
      <trkpt lat="48.46084" lon="7.72733">
        <ele>146</ele>
        <time>2017-09-10T09:39:28Z</time>
      </trkpt>
      <trkpt lat="48.46094" lon="7.72759">
        <ele>146.5</ele>
        <time>2017-09-10T09:39:44Z</time>
      </trkpt>
      <trkpt lat="48.46104" lon="7.72782">
        <ele>146.3</ele>
        <time>2017-09-10T09:39:56Z</time>
      </trkpt>
      <trkpt lat="48.46111" lon="7.72807">
        <ele>146</ele>
        <time>2017-09-10T09:40:09Z</time>
      </trkpt>
      <trkpt lat="48.46116" lon="7.72835">
        <ele>146.2</ele>
        <time>2017-09-10T09:40:20Z</time>
      </trkpt>
      <trkpt lat="48.4612" lon="7.7289">
        <ele>146.3</ele>
        <time>2017-09-10T09:40:54Z</time>
      </trkpt>
      <trkpt lat="48.46122" lon="7.72918">
        <ele>146.4</ele>
        <time>2017-09-10T09:41:18Z</time>
      </trkpt>
      <trkpt lat="48.4612" lon="7.72946">
        <ele>146</ele>
        <time>2017-09-10T09:41:35Z</time>
      </trkpt>
      <trkpt lat="48.46126" lon="7.72972">
        <ele>146.5</ele>
        <time>2017-09-10T09:41:53Z</time>
      </trkpt>
      <trkpt lat="48.4614" lon="7.72989">
        <ele>146.4</ele>
        <time>2017-09-10T09:42:17Z</time>
      </trkpt>
      <trkpt lat="48.46157" lon="7.73001">
        <ele>146.1</ele>
        <time>2017-09-10T09:42:31Z</time>
      </trkpt>
      <trkpt lat="48.46175" lon="7.72993">
        <ele>146.2</ele>
        <time>2017-09-10T09:42:46Z</time>
      </trkpt>
      <trkpt lat="48.46193" lon="7.72989">
        <ele>146.4</ele>
        <time>2017-09-10T09:43:01Z</time>
      </trkpt>
      <trkpt lat="48.46211" lon="7.72981">
        <ele>146.5</ele>
        <time>2017-09-10T09:43:14Z</time>
      </trkpt>
      <trkpt lat="48.46226" lon="7.72965">
        <ele>146.3</ele>
        <time>2017-09-10T09:43:30Z</time>
      </trkpt>
      <trkpt lat="48.46238" lon="7.72943">
        <ele>146.4</ele>
        <time>2017-09-10T09:43:46Z</time>
      </trkpt>
      <trkpt lat="48.46254" lon="7.72926">
        <ele>146.1</ele>
        <time>2017-09-10T09:43:57Z</time>
      </trkpt>
      <trkpt lat="48.46265" lon="7.72905">
        <ele>146.5</ele>
        <time>2017-09-10T09:44:09Z</time>
      </trkpt>
      <trkpt lat="48.46278" lon="7.72882">
        <ele>146</ele>
        <time>2017-09-10T09:44:21Z</time>
      </trkpt>
      <trkpt lat="48.46288" lon="7.72858">
        <ele>146.4</ele>
        <time>2017-09-10T09:44:31Z</time>
      </trkpt>
      <trkpt lat="48.46303" lon="7.72836">
        <ele>146.2</ele>
        <time>2017-09-10T09:44:41Z</time>
      </trkpt>
      <trkpt lat="48.46313" lon="7.72813">
        <ele>146.2</ele>
        <time>2017-09-10T09:44:52Z</time>
      </trkpt>
      <trkpt lat="48.46319" lon="7.72786">
        <ele>146.1</ele>
        <time>2017-09-10T09:45:04Z</time>
      </trkpt>
      <trkpt lat="48.46334" lon="7.7277">
        <ele>146</ele>
        <time>2017-09-10T09:45:16Z</time>
      </trkpt>
      <trkpt lat="48.46349" lon="7.72756">
        <ele>146.1</ele>
        <time>2017-09-10T09:45:25Z</time>
      </trkpt>
      <trkpt lat="48.46362" lon="7.72733">
        <ele>146</ele>
        <time>2017-09-10T09:45:38Z</time>
      </trkpt>
      <trkpt lat="48.46369" lon="7.72707">
        <ele>146.4</ele>
        <time>2017-09-10T09:45:54Z</time>
      </trkpt>
      <trkpt lat="48.46373" lon="7.7268">
        <ele>146.6</ele>
        <time>2017-09-10T09:46:08Z</time>
      </trkpt>
      <trkpt lat="48.46379" lon="7.72651">
        <ele>146.3</ele>
        <time>2017-09-10T09:46:16Z</time>
      </trkpt>
      <trkpt lat="48.46394" lon="7.72634">
        <ele>146.3</ele>
        <time>2017-09-10T09:46:28Z</time>
      </trkpt>
      <trkpt lat="48.46409" lon="7.72617">
        <ele>146.4</ele>
        <time>2017-09-10T09:46:40Z</time>
      </trkpt>
      <trkpt lat="48.46426" lon="7.72609">
        <ele>146.1</ele>
        <time>2017-09-10T09:46:51Z</time>
      </trkpt>
      <trkpt lat="48.46445" lon="7.72607">
        <ele>146.1</ele>
        <time>2017-09-10T09:47:07Z</time>
      </trkpt>
      <trkpt lat="48.4646" lon="7.72593">
        <ele>146.5</ele>
        <time>2017-09-10T09:47:30Z</time>
      </trkpt>
      <trkpt lat="48.46478" lon="7.72583">
        <ele>146</ele>
        <time>2017-09-10T09:48:00Z</time>
      </trkpt>
      <trkpt lat="48.46498" lon="7.72587">
        <ele>146.1</ele>
        <time>2017-09-10T09:48:14Z</time>
      </trkpt>
      <trkpt lat="48.46516" lon="7.72581">
        <ele>146.1</ele>
        <time>2017-09-10T09:48:26Z</time>
      </trkpt>
      <trkpt lat="48.46534" lon="7.7257">
        <ele>146.4</ele>
        <time>2017-09-10T09:48:43Z</time>
      </trkpt>
      <trkpt lat="48.46552" lon="7.72566">
        <ele>146.1</ele>
        <time>2017-09-10T09:48:54Z</time>
      </trkpt>
      <trkpt lat="48.4657" lon="7.7256">
        <ele>146.1</ele>
        <time>2017-09-10T09:49:06Z</time>
      </trkpt>
      <trkpt lat="48.46588" lon="7.72554">
        <ele>146.2</ele>
        <time>2017-09-10T09:49:21Z</time>
      </trkpt>
      <trkpt lat="48.46605" lon="7.72544">
        <ele>146.5</ele>
        <time>2017-09-10T09:49:43Z</time>
      </trkpt>
      <trkpt lat="48.46618" lon="7.72523">
        <ele>146.2</ele>
        <time>2017-09-10T09:50:01Z</time>
      </trkpt>
      <trkpt lat="48.46628" lon="7.72499">
        <ele>146.6</ele>
        <time>2017-09-10T09:50:15Z</time>
      </trkpt>
      <trkpt lat="48.46639" lon="7.72476">
        <ele>146.1</ele>
        <time>2017-09-10T09:50:30Z</time>
      </trkpt>
      <trkpt lat="48.46653" lon="7.72458">
        <ele>146.2</ele>
        <time>2017-09-10T09:50:43Z</time>
      </trkpt>
      <trkpt lat="48.46667" lon="7.72438">
        <ele>146</ele>
        <time>2017-09-10T09:50:58Z</time>
      </trkpt>
      <trkpt lat="48.46686" lon="7.72431">
        <ele>146</ele>
        <time>2017-09-10T09:51:08Z</time>
      </trkpt>
      <trkpt lat="48.46703" lon="7.72426">
        <ele>146</ele>
        <time>2017-09-10T09:51:17Z</time>
      </trkpt>
      <trkpt lat="48.46721" lon="7.72417">
        <ele>146</ele>
        <time>2017-09-10T09:51:29Z</time>
      </trkpt>
      <trkpt lat="48.46739" lon="7.72411">
        <ele>146.2</ele>
        <time>2017-09-10T09:51:40Z</time>
      </trkpt>
      <trkpt lat="48.46757" lon="7.72406">
        <ele>146.4</ele>
        <time>2017-09-10T09:51:52Z</time>
      </trkpt>
      <trkpt lat="48.46776" lon="7.72402">
        <ele>146.5</ele>
        <time>2017-09-10T09:52:04Z</time>
      </trkpt>
      <trkpt lat="48.46794" lon="7.72405">
        <ele>146.2</ele>
        <time>2017-09-10T09:52:17Z</time>
      </trkpt>
      <trkpt lat="48.46812" lon="7.72406">
        <ele>146</ele>
        <time>2017-09-10T09:52:31Z</time>
      </trkpt>
      <trkpt lat="48.4683" lon="7.72416">
        <ele>146</ele>
        <time>2017-09-10T09:52:46Z</time>
      </trkpt>
      <trkpt lat="48.46847" lon="7.72425">
        <ele>146.2</ele>
        <time>2017-09-10T09:53:05Z</time>
      </trkpt>
      <trkpt lat="48.46862" lon="7.72441">
        <ele>146</ele>
        <time>2017-09-10T09:53:26Z</time>
      </trkpt>
      <trkpt lat="48.4688" lon="7.72455">
        <ele>146.1</ele>
        <time>2017-09-10T09:53:37Z</time>
      </trkpt>
      <trkpt lat="48.46897" lon="7.72466">
        <ele>146</ele>
        <time>2017-09-10T09:53:45Z</time>
      </trkpt>
      <trkpt lat="48.46917" lon="7.72471">
        <ele>146</ele>
        <time>2017-09-10T09:53:56Z</time>
      </trkpt>
      <trkpt lat="48.46934" lon="7.72479">
        <ele>146</ele>
        <time>2017-09-10T09:54:07Z</time>
      </trkpt>
      <trkpt lat="48.46953" lon="7.72484">
        <ele>146</ele>
        <time>2017-09-10T09:54:18Z</time>
      </trkpt>
      <trkpt lat="48.46972" lon="7.72487">
        <ele>146</ele>
        <time>2017-09-10T09:54:29Z</time>
      </trkpt>
      <trkpt lat="48.46991" lon="7.72487">
        <ele>146</ele>
        <time>2017-09-10T09:54:40Z</time>
      </trkpt>
      <trkpt lat="48.47009" lon="7.72494">
        <ele>146.1</ele>
        <time>2017-09-10T09:54:51Z</time>
      </trkpt>
      <trkpt lat="48.47024" lon="7.72513">
        <ele>146.5</ele>
        <time>2017-09-10T09:55:01Z</time>
      </trkpt>
      <trkpt lat="48.47039" lon="7.7253">
        <ele>147</ele>
        <time>2017-09-10T09:55:10Z</time>
      </trkpt>
      <trkpt lat="48.47049" lon="7.72553">
        <ele>146.5</ele>
        <time>2017-09-10T09:55:18Z</time>
      </trkpt>
      <trkpt lat="48.4706" lon="7.72578">
        <ele>146.7</ele>
        <time>2017-09-10T09:55:30Z</time>
      </trkpt>
      <trkpt lat="48.4707" lon="7.72604">
        <ele>146.5</ele>
        <time>2017-09-10T09:55:38Z</time>
      </trkpt>
      <trkpt lat="48.4708" lon="7.72628">
        <ele>146.1</ele>
        <time>2017-09-10T09:55:48Z</time>
      </trkpt>
      <trkpt lat="48.4709" lon="7.72652">
        <ele>146.1</ele>
        <time>2017-09-10T09:55:59Z</time>
      </trkpt>
      <trkpt lat="48.471" lon="7.72676">
        <ele>145.9</ele>
        <time>2017-09-10T09:56:08Z</time>
      </trkpt>
      <trkpt lat="48.47113" lon="7.72695">
        <ele>145.1</ele>
        <time>2017-09-10T09:56:18Z</time>
      </trkpt>
      <trkpt lat="48.47127" lon="7.72714">
        <ele>145.6</ele>
        <time>2017-09-10T09:56:29Z</time>
      </trkpt>
      <trkpt lat="48.47139" lon="7.72736">
        <ele>145.5</ele>
        <time>2017-09-10T09:56:40Z</time>
      </trkpt>
      <trkpt lat="48.47153" lon="7.72753">
        <ele>146.9</ele>
        <time>2017-09-10T09:56:52Z</time>
      </trkpt>
      <trkpt lat="48.4716" lon="7.72781">
        <ele>145.9</ele>
        <time>2017-09-10T09:57:11Z</time>
      </trkpt>
      <trkpt lat="48.47167" lon="7.72807">
        <ele>145.1</ele>
        <time>2017-09-10T09:57:22Z</time>
      </trkpt>
      <trkpt lat="48.47174" lon="7.72832">
        <ele>146.5</ele>
        <time>2017-09-10T09:57:36Z</time>
      </trkpt>
      <trkpt lat="48.47178" lon="7.72858">
        <ele>146.8</ele>
        <time>2017-09-10T09:57:52Z</time>
      </trkpt>
      <trkpt lat="48.47184" lon="7.72886">
        <ele>146.1</ele>
        <time>2017-09-10T09:58:06Z</time>
      </trkpt>
      <trkpt lat="48.47188" lon="7.72914">
        <ele>145.3</ele>
        <time>2017-09-10T09:58:20Z</time>
      </trkpt>
      <trkpt lat="48.4719" lon="7.72943">
        <ele>145.2</ele>
        <time>2017-09-10T09:58:31Z</time>
      </trkpt>
      <trkpt lat="48.47181" lon="7.72967">
        <ele>145.9</ele>
        <time>2017-09-10T09:58:42Z</time>
      </trkpt>
      <trkpt lat="48.47172" lon="7.72992">
        <ele>145.4</ele>
        <time>2017-09-10T09:58:56Z</time>
      </trkpt>
      <trkpt lat="48.47168" lon="7.73018">
        <ele>145.1</ele>
        <time>2017-09-10T09:59:19Z</time>
      </trkpt>
      <trkpt lat="48.47162" lon="7.73045">
        <ele>145.1</ele>
        <time>2017-09-10T09:59:30Z</time>
      </trkpt>
      <trkpt lat="48.47158" lon="7.73073">
        <ele>145</ele>
        <time>2017-09-10T09:59:39Z</time>
      </trkpt>
      <trkpt lat="48.4717" lon="7.73095">
        <ele>145.1</ele>
        <time>2017-09-10T09:59:56Z</time>
      </trkpt>
      <trkpt lat="48.47183" lon="7.73076">
        <ele>145.4</ele>
        <time>2017-09-10T10:03:18Z</time>
      </trkpt>
      <trkpt lat="48.47193" lon="7.73053">
        <ele>145.1</ele>
        <time>2017-09-10T10:04:09Z</time>
      </trkpt>
      <trkpt lat="48.47212" lon="7.73048">
        <ele>145.3</ele>
        <time>2017-09-10T10:04:24Z</time>
      </trkpt>
      <trkpt lat="48.47228" lon="7.73062">
        <ele>145.4</ele>
        <time>2017-09-10T10:04:39Z</time>
      </trkpt>
      <trkpt lat="48.47241" lon="7.73084">
        <ele>145.7</ele>
        <time>2017-09-10T10:04:50Z</time>
      </trkpt>
      <trkpt lat="48.47251" lon="7.73107">
        <ele>145.2</ele>
        <time>2017-09-10T10:05:00Z</time>
      </trkpt>
      <trkpt lat="48.4726" lon="7.73131">
        <ele>145.4</ele>
        <time>2017-09-10T10:05:10Z</time>
      </trkpt>
      <trkpt lat="48.4727" lon="7.73156">
        <ele>145.5</ele>
        <time>2017-09-10T10:05:24Z</time>
      </trkpt>
      <trkpt lat="48.47282" lon="7.73176">
        <ele>145.1</ele>
        <time>2017-09-10T10:05:39Z</time>
      </trkpt>
      <trkpt lat="48.47298" lon="7.73192">
        <ele>145.1</ele>
        <time>2017-09-10T10:05:53Z</time>
      </trkpt>
      <trkpt lat="48.47315" lon="7.73204">
        <ele>145.2</ele>
        <time>2017-09-10T10:06:06Z</time>
      </trkpt>
      <trkpt lat="48.47329" lon="7.73222">
        <ele>145</ele>
        <time>2017-09-10T10:06:18Z</time>
      </trkpt>
      <trkpt lat="48.47341" lon="7.73241">
        <ele>145.6</ele>
        <time>2017-09-10T10:06:31Z</time>
      </trkpt>
      <trkpt lat="48.47351" lon="7.73266">
        <ele>145.5</ele>
        <time>2017-09-10T10:06:50Z</time>
      </trkpt>
      <trkpt lat="48.47361" lon="7.73289">
        <ele>145</ele>
        <time>2017-09-10T10:07:09Z</time>
      </trkpt>
      <trkpt lat="48.47374" lon="7.73309">
        <ele>145.4</ele>
        <time>2017-09-10T10:07:30Z</time>
      </trkpt>
      <trkpt lat="48.47385" lon="7.73332">
        <ele>145</ele>
        <time>2017-09-10T10:07:48Z</time>
      </trkpt>
      <trkpt lat="48.47397" lon="7.73354">
        <ele>145.1</ele>
        <time>2017-09-10T10:08:00Z</time>
      </trkpt>
      <trkpt lat="48.47408" lon="7.73377">
        <ele>144.6</ele>
        <time>2017-09-10T10:08:08Z</time>
      </trkpt>
      <trkpt lat="48.47419" lon="7.73399">
        <ele>144.4</ele>
        <time>2017-09-10T10:08:21Z</time>
      </trkpt>
      <trkpt lat="48.47428" lon="7.73425">
        <ele>145.1</ele>
        <time>2017-09-10T10:08:35Z</time>
      </trkpt>
      <trkpt lat="48.47426" lon="7.73454">
        <ele>145.1</ele>
        <time>2017-09-10T10:08:50Z</time>
      </trkpt>
      <trkpt lat="48.47413" lon="7.73475">
        <ele>144.4</ele>
        <time>2017-09-10T10:09:01Z</time>
      </trkpt>
      <trkpt lat="48.47399" lon="7.73495">
        <ele>145.5</ele>
        <time>2017-09-10T10:09:12Z</time>
      </trkpt>
      <trkpt lat="48.47386" lon="7.73515">
        <ele>145.1</ele>
        <time>2017-09-10T10:09:26Z</time>
      </trkpt>
      <trkpt lat="48.47374" lon="7.73538">
        <ele>145.5</ele>
        <time>2017-09-10T10:09:37Z</time>
      </trkpt>
      <trkpt lat="48.47372" lon="7.73567">
        <ele>145.6</ele>
        <time>2017-09-10T10:09:50Z</time>
      </trkpt>
      <trkpt lat="48.4738" lon="7.73593">
        <ele>145.5</ele>
        <time>2017-09-10T10:10:03Z</time>
      </trkpt>
      <trkpt lat="48.47392" lon="7.73618">
        <ele>144.6</ele>
        <time>2017-09-10T10:10:14Z</time>
      </trkpt>
      <trkpt lat="48.47405" lon="7.73637">
        <ele>144.9</ele>
        <time>2017-09-10T10:10:22Z</time>
      </trkpt>
      <trkpt lat="48.4742" lon="7.73655">
        <ele>144.6</ele>
        <time>2017-09-10T10:10:31Z</time>
      </trkpt>
      <trkpt lat="48.47438" lon="7.73662">
        <ele>144.5</ele>
        <time>2017-09-10T10:10:46Z</time>
      </trkpt>
      <trkpt lat="48.47457" lon="7.73665">
        <ele>144.1</ele>
        <time>2017-09-10T10:11:01Z</time>
      </trkpt>
      <trkpt lat="48.47475" lon="7.73668">
        <ele>144.1</ele>
        <time>2017-09-10T10:11:25Z</time>
      </trkpt>
      <trkpt lat="48.47494" lon="7.73665">
        <ele>144.1</ele>
        <time>2017-09-10T10:11:37Z</time>
      </trkpt>
      <trkpt lat="48.47513" lon="7.73663">
        <ele>144.3</ele>
        <time>2017-09-10T10:11:47Z</time>
      </trkpt>
      <trkpt lat="48.47532" lon="7.73664">
        <ele>144.4</ele>
        <time>2017-09-10T10:11:56Z</time>
      </trkpt>
      <trkpt lat="48.4755" lon="7.73653">
        <ele>145.4</ele>
        <time>2017-09-10T10:12:06Z</time>
      </trkpt>
      <trkpt lat="48.47565" lon="7.73638">
        <ele>145.7</ele>
        <time>2017-09-10T10:12:18Z</time>
      </trkpt>
      <trkpt lat="48.4758" lon="7.7362">
        <ele>145.1</ele>
        <time>2017-09-10T10:12:32Z</time>
      </trkpt>
      <trkpt lat="48.47595" lon="7.73604">
        <ele>145</ele>
        <time>2017-09-10T10:12:48Z</time>
      </trkpt>
      <trkpt lat="48.4761" lon="7.73588">
        <ele>144.3</ele>
        <time>2017-09-10T10:12:59Z</time>
      </trkpt>
      <trkpt lat="48.47624" lon="7.73568">
        <ele>144.5</ele>
        <time>2017-09-10T10:13:11Z</time>
      </trkpt>
      <trkpt lat="48.47643" lon="7.73564">
        <ele>144.4</ele>
        <time>2017-09-10T10:13:24Z</time>
      </trkpt>
      <trkpt lat="48.47659" lon="7.73579">
        <ele>144.4</ele>
        <time>2017-09-10T10:13:37Z</time>
      </trkpt>
      <trkpt lat="48.47667" lon="7.73604">
        <ele>144</ele>
        <time>2017-09-10T10:13:48Z</time>
      </trkpt>
      <trkpt lat="48.47669" lon="7.73632">
        <ele>144.1</ele>
        <time>2017-09-10T10:13:59Z</time>
      </trkpt>
      <trkpt lat="48.47667" lon="7.73659">
        <ele>144</ele>
        <time>2017-09-10T10:14:07Z</time>
      </trkpt>
      <trkpt lat="48.47663" lon="7.73689">
        <ele>144.1</ele>
        <time>2017-09-10T10:14:16Z</time>
      </trkpt>
      <trkpt lat="48.47656" lon="7.73714">
        <ele>144.8</ele>
        <time>2017-09-10T10:14:24Z</time>
      </trkpt>
      <trkpt lat="48.47648" lon="7.7374">
        <ele>144.6</ele>
        <time>2017-09-10T10:14:34Z</time>
      </trkpt>
      <trkpt lat="48.47639" lon="7.73765">
        <ele>144</ele>
        <time>2017-09-10T10:14:46Z</time>
      </trkpt>
      <trkpt lat="48.47628" lon="7.7379">
        <ele>144.5</ele>
        <time>2017-09-10T10:14:59Z</time>
      </trkpt>
      <trkpt lat="48.47614" lon="7.73808">
        <ele>144.2</ele>
        <time>2017-09-10T10:15:10Z</time>
      </trkpt>
      <trkpt lat="48.47599" lon="7.73824">
        <ele>144.5</ele>
        <time>2017-09-10T10:15:26Z</time>
      </trkpt>
      <trkpt lat="48.47587" lon="7.73844">
        <ele>144.1</ele>
        <time>2017-09-10T10:15:51Z</time>
      </trkpt>
      <trkpt lat="48.47578" lon="7.73869">
        <ele>144.2</ele>
        <time>2017-09-10T10:17:27Z</time>
      </trkpt>
      <trkpt lat="48.47581" lon="7.73897">
        <ele>144.1</ele>
        <time>2017-09-10T10:17:39Z</time>
      </trkpt>
      <trkpt lat="48.47586" lon="7.73924">
        <ele>144.1</ele>
        <time>2017-09-10T10:17:51Z</time>
      </trkpt>
      <trkpt lat="48.47599" lon="7.73945">
        <ele>144.5</ele>
        <time>2017-09-10T10:18:04Z</time>
      </trkpt>
      <trkpt lat="48.47611" lon="7.73966">
        <ele>144.2</ele>
        <time>2017-09-10T10:18:17Z</time>
      </trkpt>
      <trkpt lat="48.47626" lon="7.73983">
        <ele>144.5</ele>
        <time>2017-09-10T10:18:27Z</time>
      </trkpt>
      <trkpt lat="48.47642" lon="7.73998">
        <ele>144.2</ele>
        <time>2017-09-10T10:18:38Z</time>
      </trkpt>
      <trkpt lat="48.47657" lon="7.74017">
        <ele>144.2</ele>
        <time>2017-09-10T10:18:50Z</time>
      </trkpt>
      <trkpt lat="48.47672" lon="7.74035">
        <ele>144.1</ele>
        <time>2017-09-10T10:19:00Z</time>
      </trkpt>
      <trkpt lat="48.47687" lon="7.74052">
        <ele>144.1</ele>
        <time>2017-09-10T10:19:09Z</time>
      </trkpt>
      <trkpt lat="48.47703" lon="7.74069">
        <ele>144.2</ele>
        <time>2017-09-10T10:19:18Z</time>
      </trkpt>
      <trkpt lat="48.47717" lon="7.74086">
        <ele>144</ele>
        <time>2017-09-10T10:19:29Z</time>
      </trkpt>
      <trkpt lat="48.47735" lon="7.74096">
        <ele>144</ele>
        <time>2017-09-10T10:19:43Z</time>
      </trkpt>
      <trkpt lat="48.47753" lon="7.74097">
        <ele>144</ele>
        <time>2017-09-10T10:19:56Z</time>
      </trkpt>
      <trkpt lat="48.47772" lon="7.74097">
        <ele>144</ele>
        <time>2017-09-10T10:20:09Z</time>
      </trkpt>
      <trkpt lat="48.47791" lon="7.74099">
        <ele>144</ele>
        <time>2017-09-10T10:20:21Z</time>
      </trkpt>
      <trkpt lat="48.4781" lon="7.74095">
        <ele>144</ele>
        <time>2017-09-10T10:20:34Z</time>
      </trkpt>
      <trkpt lat="48.47828" lon="7.74091">
        <ele>144</ele>
        <time>2017-09-10T10:20:49Z</time>
      </trkpt>
      <trkpt lat="48.47847" lon="7.7409">
        <ele>144</ele>
        <time>2017-09-10T10:21:03Z</time>
      </trkpt>
      <trkpt lat="48.47865" lon="7.74089">
        <ele>144</ele>
        <time>2017-09-10T10:21:13Z</time>
      </trkpt>
      <trkpt lat="48.47884" lon="7.74086">
        <ele>144</ele>
        <time>2017-09-10T10:21:24Z</time>
      </trkpt>
      <trkpt lat="48.479" lon="7.74101">
        <ele>144</ele>
        <time>2017-09-10T10:21:36Z</time>
      </trkpt>
      <trkpt lat="48.47914" lon="7.7412">
        <ele>144.1</ele>
        <time>2017-09-10T10:21:47Z</time>
      </trkpt>
      <trkpt lat="48.47926" lon="7.7414">
        <ele>144</ele>
        <time>2017-09-10T10:22:02Z</time>
      </trkpt>
      <trkpt lat="48.4794" lon="7.7416">
        <ele>144</ele>
        <time>2017-09-10T10:22:17Z</time>
      </trkpt>
      <trkpt lat="48.47953" lon="7.74181">
        <ele>144</ele>
        <time>2017-09-10T10:22:30Z</time>
      </trkpt>
      <trkpt lat="48.47955" lon="7.74208">
        <ele>144</ele>
        <time>2017-09-10T10:22:42Z</time>
      </trkpt>
      <trkpt lat="48.47959" lon="7.74236">
        <ele>144.2</ele>
        <time>2017-09-10T10:22:55Z</time>
      </trkpt>
      <trkpt lat="48.47977" lon="7.74245">
        <ele>144</ele>
        <time>2017-09-10T10:23:17Z</time>
      </trkpt>
      <trkpt lat="48.47994" lon="7.74256">
        <ele>144.2</ele>
        <time>2017-09-10T10:23:27Z</time>
      </trkpt>
      <trkpt lat="48.48012" lon="7.74265">
        <ele>144.3</ele>
        <time>2017-09-10T10:23:37Z</time>
      </trkpt>
      <trkpt lat="48.48032" lon="7.74267">
        <ele>144</ele>
        <time>2017-09-10T10:23:47Z</time>
      </trkpt>
      <trkpt lat="48.4805" lon="7.74275">
        <ele>144</ele>
        <time>2017-09-10T10:23:55Z</time>
      </trkpt>
      <trkpt lat="48.48066" lon="7.7429">
        <ele>144</ele>
        <time>2017-09-10T10:24:03Z</time>
      </trkpt>
      <trkpt lat="48.48082" lon="7.74304">
        <ele>144</ele>
        <time>2017-09-10T10:24:13Z</time>
      </trkpt>
      <trkpt lat="48.48098" lon="7.7432">
        <ele>143.7</ele>
        <time>2017-09-10T10:24:26Z</time>
      </trkpt>
      <trkpt lat="48.48114" lon="7.74333">
        <ele>143.1</ele>
        <time>2017-09-10T10:24:37Z</time>
      </trkpt>
      <trkpt lat="48.4813" lon="7.74345">
        <ele>143.9</ele>
        <time>2017-09-10T10:24:46Z</time>
      </trkpt>
      <trkpt lat="48.48149" lon="7.74349">
        <ele>144</ele>
        <time>2017-09-10T10:24:58Z</time>
      </trkpt>
      <trkpt lat="48.48167" lon="7.74355">
        <ele>144</ele>
        <time>2017-09-10T10:25:14Z</time>
      </trkpt>
      <trkpt lat="48.48186" lon="7.74357">
        <ele>144</ele>
        <time>2017-09-10T10:25:27Z</time>
      </trkpt>
      <trkpt lat="48.48203" lon="7.74368">
        <ele>144.2</ele>
        <time>2017-09-10T10:25:39Z</time>
      </trkpt>
      <trkpt lat="48.48216" lon="7.74389">
        <ele>144</ele>
        <time>2017-09-10T10:25:51Z</time>
      </trkpt>
      <trkpt lat="48.48228" lon="7.7441">
        <ele>144</ele>
        <time>2017-09-10T10:26:03Z</time>
      </trkpt>
      <trkpt lat="48.48235" lon="7.74437">
        <ele>144</ele>
        <time>2017-09-10T10:26:15Z</time>
      </trkpt>
      <trkpt lat="48.48246" lon="7.74461">
        <ele>144.1</ele>
        <time>2017-09-10T10:26:26Z</time>
      </trkpt>
      <trkpt lat="48.48261" lon="7.74479">
        <ele>144.1</ele>
        <time>2017-09-10T10:26:39Z</time>
      </trkpt>
      <trkpt lat="48.48277" lon="7.74491">
        <ele>144</ele>
        <time>2017-09-10T10:26:50Z</time>
      </trkpt>
      <trkpt lat="48.48291" lon="7.74508">
        <ele>144.3</ele>
        <time>2017-09-10T10:27:04Z</time>
      </trkpt>
      <trkpt lat="48.483" lon="7.74535">
        <ele>144</ele>
        <time>2017-09-10T10:27:16Z</time>
      </trkpt>
      <trkpt lat="48.48307" lon="7.74561">
        <ele>144.1</ele>
        <time>2017-09-10T10:27:27Z</time>
      </trkpt>
      <trkpt lat="48.48317" lon="7.74585">
        <ele>144.4</ele>
        <time>2017-09-10T10:27:40Z</time>
      </trkpt>
      <trkpt lat="48.48323" lon="7.74613">
        <ele>144.6</ele>
        <time>2017-09-10T10:27:51Z</time>
      </trkpt>
      <trkpt lat="48.48329" lon="7.7464">
        <ele>144</ele>
        <time>2017-09-10T10:28:01Z</time>
      </trkpt>
      <trkpt lat="48.48334" lon="7.74667">
        <ele>144</ele>
        <time>2017-09-10T10:28:12Z</time>
      </trkpt>
      <trkpt lat="48.48337" lon="7.74694">
        <ele>143.3</ele>
        <time>2017-09-10T10:28:22Z</time>
      </trkpt>
      <trkpt lat="48.48343" lon="7.74722">
        <ele>144.3</ele>
        <time>2017-09-10T10:28:33Z</time>
      </trkpt>
      <trkpt lat="48.48345" lon="7.7475">
        <ele>144.4</ele>
        <time>2017-09-10T10:28:45Z</time>
      </trkpt>
      <trkpt lat="48.48346" lon="7.74778">
        <ele>144.4</ele>
        <time>2017-09-10T10:28:56Z</time>
      </trkpt>
      <trkpt lat="48.48343" lon="7.74807">
        <ele>143.7</ele>
        <time>2017-09-10T10:29:07Z</time>
      </trkpt>
      <trkpt lat="48.48339" lon="7.74836">
        <ele>143.2</ele>
        <time>2017-09-10T10:29:17Z</time>
      </trkpt>
      <trkpt lat="48.48336" lon="7.74864">
        <ele>143.1</ele>
        <time>2017-09-10T10:29:27Z</time>
      </trkpt>
      <trkpt lat="48.48338" lon="7.74893">
        <ele>143.2</ele>
        <time>2017-09-10T10:29:38Z</time>
      </trkpt>
      <trkpt lat="48.48339" lon="7.74921">
        <ele>143.3</ele>
        <time>2017-09-10T10:29:49Z</time>
      </trkpt>
      <trkpt lat="48.48344" lon="7.74948">
        <ele>144</ele>
        <time>2017-09-10T10:29:59Z</time>
      </trkpt>
      <trkpt lat="48.48353" lon="7.74972">
        <ele>144</ele>
        <time>2017-09-10T10:30:10Z</time>
      </trkpt>
      <trkpt lat="48.48361" lon="7.74997">
        <ele>143.1</ele>
        <time>2017-09-10T10:30:20Z</time>
      </trkpt>
      <trkpt lat="48.4837" lon="7.75022">
        <ele>143.8</ele>
        <time>2017-09-10T10:30:31Z</time>
      </trkpt>
      <trkpt lat="48.48377" lon="7.75049">
        <ele>144</ele>
        <time>2017-09-10T10:30:44Z</time>
      </trkpt>
      <trkpt lat="48.48385" lon="7.75075">
        <ele>143.4</ele>
        <time>2017-09-10T10:30:54Z</time>
      </trkpt>
      <trkpt lat="48.48394" lon="7.75098">
        <ele>143.6</ele>
        <time>2017-09-10T10:31:06Z</time>
      </trkpt>
      <trkpt lat="48.48403" lon="7.75125">
        <ele>144</ele>
        <time>2017-09-10T10:31:20Z</time>
      </trkpt>
      <trkpt lat="48.48408" lon="7.75153">
        <ele>144</ele>
        <time>2017-09-10T10:31:32Z</time>
      </trkpt>
      <trkpt lat="48.48414" lon="7.75179">
        <ele>143.6</ele>
        <time>2017-09-10T10:31:43Z</time>
      </trkpt>
      <trkpt lat="48.48421" lon="7.75205">
        <ele>143.2</ele>
        <time>2017-09-10T10:31:56Z</time>
      </trkpt>
      <trkpt lat="48.4843" lon="7.7523">
        <ele>143.5</ele>
        <time>2017-09-10T10:32:10Z</time>
      </trkpt>
      <trkpt lat="48.48436" lon="7.75258">
        <ele>143.3</ele>
        <time>2017-09-10T10:32:26Z</time>
      </trkpt>
      <trkpt lat="48.48448" lon="7.75279">
        <ele>143.2</ele>
        <time>2017-09-10T10:32:42Z</time>
      </trkpt>
      <trkpt lat="48.48462" lon="7.75298">
        <ele>143.4</ele>
        <time>2017-09-10T10:32:55Z</time>
      </trkpt>
      <trkpt lat="48.48479" lon="7.75312">
        <ele>143.2</ele>
        <time>2017-09-10T10:33:08Z</time>
      </trkpt>
      <trkpt lat="48.48499" lon="7.75317">
        <ele>143.4</ele>
        <time>2017-09-10T10:33:20Z</time>
      </trkpt>
      <trkpt lat="48.48517" lon="7.75311">
        <ele>143.2</ele>
        <time>2017-09-10T10:33:31Z</time>
      </trkpt>
      <trkpt lat="48.48535" lon="7.75302">
        <ele>143.4</ele>
        <time>2017-09-10T10:33:42Z</time>
      </trkpt>
      <trkpt lat="48.48553" lon="7.75292">
        <ele>143.9</ele>
        <time>2017-09-10T10:33:52Z</time>
      </trkpt>
      <trkpt lat="48.48569" lon="7.75277">
        <ele>143.5</ele>
        <time>2017-09-10T10:34:03Z</time>
      </trkpt>
      <trkpt lat="48.48586" lon="7.75264">
        <ele>143.5</ele>
        <time>2017-09-10T10:34:16Z</time>
      </trkpt>
      <trkpt lat="48.48599" lon="7.75244">
        <ele>143.9</ele>
        <time>2017-09-10T10:34:29Z</time>
      </trkpt>
      <trkpt lat="48.48612" lon="7.75223">
        <ele>143.1</ele>
        <time>2017-09-10T10:34:41Z</time>
      </trkpt>
      <trkpt lat="48.48628" lon="7.75207">
        <ele>143.5</ele>
        <time>2017-09-10T10:34:51Z</time>
      </trkpt>
      <trkpt lat="48.48645" lon="7.75197">
        <ele>143.1</ele>
        <time>2017-09-10T10:35:01Z</time>
      </trkpt>
      <trkpt lat="48.48663" lon="7.75194">
        <ele>143</ele>
        <time>2017-09-10T10:35:11Z</time>
      </trkpt>
      <trkpt lat="48.48682" lon="7.75204">
        <ele>143.5</ele>
        <time>2017-09-10T10:35:22Z</time>
      </trkpt>
      <trkpt lat="48.48699" lon="7.75212">
        <ele>143.4</ele>
        <time>2017-09-10T10:35:33Z</time>
      </trkpt>
      <trkpt lat="48.48717" lon="7.75222">
        <ele>143</ele>
        <time>2017-09-10T10:35:44Z</time>
      </trkpt>
      <trkpt lat="48.48734" lon="7.75232">
        <ele>143.5</ele>
        <time>2017-09-10T10:35:57Z</time>
      </trkpt>
      <trkpt lat="48.48752" lon="7.75238">
        <ele>143.4</ele>
        <time>2017-09-10T10:36:09Z</time>
      </trkpt>
      <trkpt lat="48.48771" lon="7.75245">
        <ele>143.2</ele>
        <time>2017-09-10T10:36:23Z</time>
      </trkpt>
      <trkpt lat="48.4879" lon="7.75244">
        <ele>143.3</ele>
        <time>2017-09-10T10:36:36Z</time>
      </trkpt>
      <trkpt lat="48.48809" lon="7.75246">
        <ele>143.3</ele>
        <time>2017-09-10T10:36:49Z</time>
      </trkpt>
      <trkpt lat="48.48827" lon="7.75245">
        <ele>143.2</ele>
        <time>2017-09-10T10:37:10Z</time>
      </trkpt>
      <trkpt lat="48.48833" lon="7.75219">
        <ele>144.1</ele>
        <time>2017-09-10T10:42:20Z</time>
      </trkpt>
      <trkpt lat="48.48835" lon="7.75246">
        <ele>143.2</ele>
        <time>2017-09-10T12:16:48Z</time>
      </trkpt>
      <trkpt lat="48.48852" lon="7.75262">
        <ele>143.7</ele>
        <time>2017-09-10T12:17:02Z</time>
      </trkpt>
      <trkpt lat="48.48868" lon="7.75274">
        <ele>143.2</ele>
        <time>2017-09-10T12:17:12Z</time>
      </trkpt>
      <trkpt lat="48.48885" lon="7.75286">
        <ele>143.3</ele>
        <time>2017-09-10T12:17:22Z</time>
      </trkpt>
      <trkpt lat="48.48899" lon="7.75304">
        <ele>143.6</ele>
        <time>2017-09-10T12:17:32Z</time>
      </trkpt>
      <trkpt lat="48.48907" lon="7.75329">
        <ele>143.3</ele>
        <time>2017-09-10T12:17:43Z</time>
      </trkpt>
      <trkpt lat="48.48909" lon="7.75358">
        <ele>143.3</ele>
        <time>2017-09-10T12:17:56Z</time>
      </trkpt>
      <trkpt lat="48.48911" lon="7.75386">
        <ele>143.2</ele>
        <time>2017-09-10T12:18:06Z</time>
      </trkpt>
      <trkpt lat="48.48918" lon="7.75412">
        <ele>143.1</ele>
        <time>2017-09-10T12:18:17Z</time>
      </trkpt>
      <trkpt lat="48.48921" lon="7.75439">
        <ele>143.2</ele>
        <time>2017-09-10T12:18:28Z</time>
      </trkpt>
      <trkpt lat="48.48922" lon="7.75467">
        <ele>143.2</ele>
        <time>2017-09-10T12:18:38Z</time>
      </trkpt>
      <trkpt lat="48.48913" lon="7.75492">
        <ele>143.1</ele>
        <time>2017-09-10T12:18:51Z</time>
      </trkpt>
      <trkpt lat="48.48906" lon="7.75519">
        <ele>143.8</ele>
        <time>2017-09-10T12:19:03Z</time>
      </trkpt>
      <trkpt lat="48.48901" lon="7.75547">
        <ele>143.7</ele>
        <time>2017-09-10T12:19:16Z</time>
      </trkpt>
      <trkpt lat="48.48904" lon="7.75575">
        <ele>143.5</ele>
        <time>2017-09-10T12:19:29Z</time>
      </trkpt>
      <trkpt lat="48.4891" lon="7.75601">
        <ele>143.2</ele>
        <time>2017-09-10T12:19:41Z</time>
      </trkpt>
      <trkpt lat="48.48916" lon="7.75629">
        <ele>143</ele>
        <time>2017-09-10T12:19:51Z</time>
      </trkpt>
      <trkpt lat="48.48921" lon="7.75656">
        <ele>143.1</ele>
        <time>2017-09-10T12:19:59Z</time>
      </trkpt>
      <trkpt lat="48.48925" lon="7.75684">
        <ele>143.7</ele>
        <time>2017-09-10T12:20:08Z</time>
      </trkpt>
      <trkpt lat="48.48928" lon="7.75711">
        <ele>144</ele>
        <time>2017-09-10T12:20:20Z</time>
      </trkpt>
      <trkpt lat="48.4893" lon="7.7574">
        <ele>143.7</ele>
        <time>2017-09-10T12:20:31Z</time>
      </trkpt>
      <trkpt lat="48.48934" lon="7.75769">
        <ele>143.6</ele>
        <time>2017-09-10T12:20:40Z</time>
      </trkpt>
      <trkpt lat="48.4894" lon="7.75797">
        <ele>143.3</ele>
        <time>2017-09-10T12:20:50Z</time>
      </trkpt>
      <trkpt lat="48.4895" lon="7.75821">
        <ele>143.5</ele>
        <time>2017-09-10T12:21:03Z</time>
      </trkpt>
      <trkpt lat="48.48956" lon="7.75847">
        <ele>143.8</ele>
        <time>2017-09-10T12:21:16Z</time>
      </trkpt>
      <trkpt lat="48.48967" lon="7.75871">
        <ele>143.4</ele>
        <time>2017-09-10T12:21:25Z</time>
      </trkpt>
      <trkpt lat="48.48979" lon="7.75892">
        <ele>143.1</ele>
        <time>2017-09-10T12:21:38Z</time>
      </trkpt>
      <trkpt lat="48.48991" lon="7.75915">
        <ele>143.3</ele>
        <time>2017-09-10T12:21:53Z</time>
      </trkpt>
      <trkpt lat="48.49007" lon="7.75929">
        <ele>143.3</ele>
        <time>2017-09-10T12:22:10Z</time>
      </trkpt>
      <trkpt lat="48.49025" lon="7.75932">
        <ele>143.1</ele>
        <time>2017-09-10T12:22:42Z</time>
      </trkpt>
      <trkpt lat="48.49043" lon="7.75938">
        <ele>143.1</ele>
        <time>2017-09-10T12:22:58Z</time>
      </trkpt>
      <trkpt lat="48.4906" lon="7.75948">
        <ele>143.1</ele>
        <time>2017-09-10T12:23:10Z</time>
      </trkpt>
      <trkpt lat="48.49077" lon="7.7596">
        <ele>143.3</ele>
        <time>2017-09-10T12:23:21Z</time>
      </trkpt>
      <trkpt lat="48.49093" lon="7.75972">
        <ele>143</ele>
        <time>2017-09-10T12:23:31Z</time>
      </trkpt>
      <trkpt lat="48.49108" lon="7.75989">
        <ele>143</ele>
        <time>2017-09-10T12:23:40Z</time>
      </trkpt>
      <trkpt lat="48.49126" lon="7.76">
        <ele>143</ele>
        <time>2017-09-10T12:23:50Z</time>
      </trkpt>
      <trkpt lat="48.49144" lon="7.75993">
        <ele>143.1</ele>
        <time>2017-09-10T12:24:02Z</time>
      </trkpt>
      <trkpt lat="48.49163" lon="7.75989">
        <ele>143.5</ele>
        <time>2017-09-10T12:24:15Z</time>
      </trkpt>
      <trkpt lat="48.49178" lon="7.75974">
        <ele>143.1</ele>
        <time>2017-09-10T12:24:26Z</time>
      </trkpt>
      <trkpt lat="48.49195" lon="7.75965">
        <ele>143</ele>
        <time>2017-09-10T12:24:37Z</time>
      </trkpt>
      <trkpt lat="48.49211" lon="7.7595">
        <ele>143.1</ele>
        <time>2017-09-10T12:24:51Z</time>
      </trkpt>
      <trkpt lat="48.49226" lon="7.75932">
        <ele>143.1</ele>
        <time>2017-09-10T12:25:02Z</time>
      </trkpt>
      <trkpt lat="48.49241" lon="7.7591">
        <ele>143.5</ele>
        <time>2017-09-10T12:25:13Z</time>
      </trkpt>
      <trkpt lat="48.49251" lon="7.75886">
        <ele>143</ele>
        <time>2017-09-10T12:25:23Z</time>
      </trkpt>
      <trkpt lat="48.49262" lon="7.75862">
        <ele>143</ele>
        <time>2017-09-10T12:25:36Z</time>
      </trkpt>
      <trkpt lat="48.49277" lon="7.75842">
        <ele>143</ele>
        <time>2017-09-10T12:25:46Z</time>
      </trkpt>
      <trkpt lat="48.49287" lon="7.75819">
        <ele>143.2</ele>
        <time>2017-09-10T12:25:56Z</time>
      </trkpt>
      <trkpt lat="48.49297" lon="7.75796">
        <ele>143</ele>
        <time>2017-09-10T12:26:08Z</time>
      </trkpt>
      <trkpt lat="48.49305" lon="7.7577">
        <ele>143</ele>
        <time>2017-09-10T12:26:22Z</time>
      </trkpt>
      <trkpt lat="48.49314" lon="7.75745">
        <ele>143</ele>
        <time>2017-09-10T12:26:34Z</time>
      </trkpt>
      <trkpt lat="48.49323" lon="7.7572">
        <ele>143</ele>
        <time>2017-09-10T12:26:44Z</time>
      </trkpt>
      <trkpt lat="48.49335" lon="7.75699">
        <ele>143</ele>
        <time>2017-09-10T12:26:53Z</time>
      </trkpt>
      <trkpt lat="48.49347" lon="7.75678">
        <ele>143.3</ele>
        <time>2017-09-10T12:27:03Z</time>
      </trkpt>
      <trkpt lat="48.49361" lon="7.75656">
        <ele>143</ele>
        <time>2017-09-10T12:27:15Z</time>
      </trkpt>
      <trkpt lat="48.49372" lon="7.75635">
        <ele>143.1</ele>
        <time>2017-09-10T12:27:25Z</time>
      </trkpt>
      <trkpt lat="48.49386" lon="7.75616">
        <ele>143.1</ele>
        <time>2017-09-10T12:27:38Z</time>
      </trkpt>
      <trkpt lat="48.49399" lon="7.75597">
        <ele>143.3</ele>
        <time>2017-09-10T12:27:49Z</time>
      </trkpt>
      <trkpt lat="48.49412" lon="7.75576">
        <ele>143.2</ele>
        <time>2017-09-10T12:27:59Z</time>
      </trkpt>
      <trkpt lat="48.49425" lon="7.75555">
        <ele>143</ele>
        <time>2017-09-10T12:28:09Z</time>
      </trkpt>
      <trkpt lat="48.49439" lon="7.75538">
        <ele>143.1</ele>
        <time>2017-09-10T12:28:18Z</time>
      </trkpt>
      <trkpt lat="48.49454" lon="7.7552">
        <ele>143.2</ele>
        <time>2017-09-10T12:28:31Z</time>
      </trkpt>
      <trkpt lat="48.4947" lon="7.75508">
        <ele>143</ele>
        <time>2017-09-10T12:28:43Z</time>
      </trkpt>
      <trkpt lat="48.49485" lon="7.7549">
        <ele>143.4</ele>
        <time>2017-09-10T12:29:01Z</time>
      </trkpt>
      <trkpt lat="48.4949" lon="7.75462">
        <ele>143.6</ele>
        <time>2017-09-10T12:29:16Z</time>
      </trkpt>
      <trkpt lat="48.49486" lon="7.75433">
        <ele>143.5</ele>
        <time>2017-09-10T12:29:28Z</time>
      </trkpt>
      <trkpt lat="48.49487" lon="7.75405">
        <ele>143.5</ele>
        <time>2017-09-10T12:29:42Z</time>
      </trkpt>
      <trkpt lat="48.49483" lon="7.75378">
        <ele>143.4</ele>
        <time>2017-09-10T12:29:53Z</time>
      </trkpt>
      <trkpt lat="48.49474" lon="7.75352">
        <ele>143.1</ele>
        <time>2017-09-10T12:30:09Z</time>
      </trkpt>
      <trkpt lat="48.49465" lon="7.75326">
        <ele>143</ele>
        <time>2017-09-10T12:30:20Z</time>
      </trkpt>
      <trkpt lat="48.49459" lon="7.75298">
        <ele>143.2</ele>
        <time>2017-09-10T12:30:30Z</time>
      </trkpt>
      <trkpt lat="48.49453" lon="7.75271">
        <ele>143.3</ele>
        <time>2017-09-10T12:30:39Z</time>
      </trkpt>
      <trkpt lat="48.49446" lon="7.75245">
        <ele>143.1</ele>
        <time>2017-09-10T12:30:53Z</time>
      </trkpt>
      <trkpt lat="48.49435" lon="7.75223">
        <ele>143</ele>
        <time>2017-09-10T12:31:05Z</time>
      </trkpt>
      <trkpt lat="48.49424" lon="7.75202">
        <ele>143.2</ele>
        <time>2017-09-10T12:31:16Z</time>
      </trkpt>
      <trkpt lat="48.49412" lon="7.75179">
        <ele>143</ele>
        <time>2017-09-10T12:31:29Z</time>
      </trkpt>
      <trkpt lat="48.49404" lon="7.75155">
        <ele>143</ele>
        <time>2017-09-10T12:31:40Z</time>
      </trkpt>
      <trkpt lat="48.49396" lon="7.7513">
        <ele>143</ele>
        <time>2017-09-10T12:31:49Z</time>
      </trkpt>
      <trkpt lat="48.49396" lon="7.75101">
        <ele>143.3</ele>
        <time>2017-09-10T12:31:59Z</time>
      </trkpt>
      <trkpt lat="48.49407" lon="7.75079">
        <ele>143.3</ele>
        <time>2017-09-10T12:32:09Z</time>
      </trkpt>
      <trkpt lat="48.49421" lon="7.75059">
        <ele>143</ele>
        <time>2017-09-10T12:32:21Z</time>
      </trkpt>
      <trkpt lat="48.49436" lon="7.75041">
        <ele>143.2</ele>
        <time>2017-09-10T12:32:31Z</time>
      </trkpt>
      <trkpt lat="48.49453" lon="7.75025">
        <ele>143.1</ele>
        <time>2017-09-10T12:32:40Z</time>
      </trkpt>
      <trkpt lat="48.49471" lon="7.75014">
        <ele>143.5</ele>
        <time>2017-09-10T12:32:50Z</time>
      </trkpt>
      <trkpt lat="48.4949" lon="7.75019">
        <ele>143.3</ele>
        <time>2017-09-10T12:33:01Z</time>
      </trkpt>
      <trkpt lat="48.49507" lon="7.7503">
        <ele>143.2</ele>
        <time>2017-09-10T12:33:11Z</time>
      </trkpt>
      <trkpt lat="48.49524" lon="7.75045">
        <ele>143.3</ele>
        <time>2017-09-10T12:33:22Z</time>
      </trkpt>
      <trkpt lat="48.49541" lon="7.75059">
        <ele>143.4</ele>
        <time>2017-09-10T12:33:32Z</time>
      </trkpt>
      <trkpt lat="48.49557" lon="7.75074">
        <ele>143.3</ele>
        <time>2017-09-10T12:33:42Z</time>
      </trkpt>
      <trkpt lat="48.49573" lon="7.75093">
        <ele>143</ele>
        <time>2017-09-10T12:33:51Z</time>
      </trkpt>
      <trkpt lat="48.49588" lon="7.7511">
        <ele>143.2</ele>
        <time>2017-09-10T12:34:02Z</time>
      </trkpt>
      <trkpt lat="48.49602" lon="7.75131">
        <ele>143.2</ele>
        <time>2017-09-10T12:34:12Z</time>
      </trkpt>
      <trkpt lat="48.49617" lon="7.75146">
        <ele>143.3</ele>
        <time>2017-09-10T12:34:20Z</time>
      </trkpt>
      <trkpt lat="48.49634" lon="7.75156">
        <ele>143.6</ele>
        <time>2017-09-10T12:34:29Z</time>
      </trkpt>
      <trkpt lat="48.49651" lon="7.75169">
        <ele>143.2</ele>
        <time>2017-09-10T12:34:37Z</time>
      </trkpt>
      <trkpt lat="48.4967" lon="7.75176">
        <ele>143.3</ele>
        <time>2017-09-10T12:34:45Z</time>
      </trkpt>
      <trkpt lat="48.49688" lon="7.75185">
        <ele>143.1</ele>
        <time>2017-09-10T12:34:52Z</time>
      </trkpt>
      <trkpt lat="48.49704" lon="7.75201">
        <ele>143.3</ele>
        <time>2017-09-10T12:35:02Z</time>
      </trkpt>
      <trkpt lat="48.49715" lon="7.75225">
        <ele>143</ele>
        <time>2017-09-10T12:35:13Z</time>
      </trkpt>
      <trkpt lat="48.49726" lon="7.75248">
        <ele>143.1</ele>
        <time>2017-09-10T12:35:25Z</time>
      </trkpt>
      <trkpt lat="48.49739" lon="7.75268">
        <ele>143.2</ele>
        <time>2017-09-10T12:35:40Z</time>
      </trkpt>
      <trkpt lat="48.49745" lon="7.75294">
        <ele>143</ele>
        <time>2017-09-10T12:35:51Z</time>
      </trkpt>
      <trkpt lat="48.49752" lon="7.75321">
        <ele>143.1</ele>
        <time>2017-09-10T12:35:59Z</time>
      </trkpt>
      <trkpt lat="48.49751" lon="7.75349">
        <ele>143</ele>
        <time>2017-09-10T12:36:08Z</time>
      </trkpt>
      <trkpt lat="48.49747" lon="7.75377">
        <ele>143</ele>
        <time>2017-09-10T12:36:19Z</time>
      </trkpt>
      <trkpt lat="48.49743" lon="7.75405">
        <ele>143.4</ele>
        <time>2017-09-10T12:36:31Z</time>
      </trkpt>
      <trkpt lat="48.49732" lon="7.75428">
        <ele>143.4</ele>
        <time>2017-09-10T12:36:41Z</time>
      </trkpt>
      <trkpt lat="48.49721" lon="7.75453">
        <ele>143.3</ele>
        <time>2017-09-10T12:36:52Z</time>
      </trkpt>
      <trkpt lat="48.4971" lon="7.75475">
        <ele>143.6</ele>
        <time>2017-09-10T12:37:02Z</time>
      </trkpt>
      <trkpt lat="48.49698" lon="7.75495">
        <ele>143.1</ele>
        <time>2017-09-10T12:37:15Z</time>
      </trkpt>
      <trkpt lat="48.49685" lon="7.75516">
        <ele>143.4</ele>
        <time>2017-09-10T12:37:24Z</time>
      </trkpt>
      <trkpt lat="48.49673" lon="7.75537">
        <ele>143.2</ele>
        <time>2017-09-10T12:37:34Z</time>
      </trkpt>
      <trkpt lat="48.49661" lon="7.7556">
        <ele>143</ele>
        <time>2017-09-10T12:37:46Z</time>
      </trkpt>
      <trkpt lat="48.4965" lon="7.75583">
        <ele>143</ele>
        <time>2017-09-10T12:37:57Z</time>
      </trkpt>
      <trkpt lat="48.49641" lon="7.75607">
        <ele>143</ele>
        <time>2017-09-10T12:38:08Z</time>
      </trkpt>
      <trkpt lat="48.49635" lon="7.75633">
        <ele>143.1</ele>
        <time>2017-09-10T12:38:19Z</time>
      </trkpt>
      <trkpt lat="48.49628" lon="7.7566">
        <ele>143.4</ele>
        <time>2017-09-10T12:38:30Z</time>
      </trkpt>
      <trkpt lat="48.49628" lon="7.75687">
        <ele>143.4</ele>
        <time>2017-09-10T12:38:43Z</time>
      </trkpt>
      <trkpt lat="48.49633" lon="7.75714">
        <ele>143.2</ele>
        <time>2017-09-10T12:38:55Z</time>
      </trkpt>
      <trkpt lat="48.49643" lon="7.75739">
        <ele>142.9</ele>
        <time>2017-09-10T12:39:07Z</time>
      </trkpt>
      <trkpt lat="48.49654" lon="7.75761">
        <ele>143.2</ele>
        <time>2017-09-10T12:39:18Z</time>
      </trkpt>
      <trkpt lat="48.49668" lon="7.7578">
        <ele>143.1</ele>
        <time>2017-09-10T12:39:34Z</time>
      </trkpt>
      <trkpt lat="48.49683" lon="7.75797">
        <ele>143.3</ele>
        <time>2017-09-10T12:39:46Z</time>
      </trkpt>
      <trkpt lat="48.497" lon="7.7581">
        <ele>143</ele>
        <time>2017-09-10T12:39:57Z</time>
      </trkpt>
      <trkpt lat="48.49715" lon="7.75827">
        <ele>143</ele>
        <time>2017-09-10T12:40:09Z</time>
      </trkpt>
      <trkpt lat="48.49729" lon="7.75844">
        <ele>143</ele>
        <time>2017-09-10T12:40:21Z</time>
      </trkpt>
      <trkpt lat="48.49742" lon="7.75864">
        <ele>143</ele>
        <time>2017-09-10T12:40:33Z</time>
      </trkpt>
      <trkpt lat="48.49758" lon="7.75881">
        <ele>143</ele>
        <time>2017-09-10T12:40:44Z</time>
      </trkpt>
      <trkpt lat="48.49771" lon="7.75903">
        <ele>143.1</ele>
        <time>2017-09-10T12:40:55Z</time>
      </trkpt>
      <trkpt lat="48.49788" lon="7.75919">
        <ele>143</ele>
        <time>2017-09-10T12:41:06Z</time>
      </trkpt>
      <trkpt lat="48.49805" lon="7.75927">
        <ele>143</ele>
        <time>2017-09-10T12:41:17Z</time>
      </trkpt>
      <trkpt lat="48.49823" lon="7.75937">
        <ele>143</ele>
        <time>2017-09-10T12:41:28Z</time>
      </trkpt>
      <trkpt lat="48.49842" lon="7.75935">
        <ele>143</ele>
        <time>2017-09-10T12:41:39Z</time>
      </trkpt>
      <trkpt lat="48.49858" lon="7.7595">
        <ele>143.2</ele>
        <time>2017-09-10T12:41:51Z</time>
      </trkpt>
      <trkpt lat="48.49875" lon="7.7596">
        <ele>143.5</ele>
        <time>2017-09-10T12:42:02Z</time>
      </trkpt>
      <trkpt lat="48.49891" lon="7.75974">
        <ele>143</ele>
        <time>2017-09-10T12:42:13Z</time>
      </trkpt>
      <trkpt lat="48.49908" lon="7.75987">
        <ele>143</ele>
        <time>2017-09-10T12:42:28Z</time>
      </trkpt>
      <trkpt lat="48.49923" lon="7.76002">
        <ele>143</ele>
        <time>2017-09-10T12:42:39Z</time>
      </trkpt>
      <trkpt lat="48.49939" lon="7.76017">
        <ele>142.5</ele>
        <time>2017-09-10T12:42:49Z</time>
      </trkpt>
      <trkpt lat="48.49954" lon="7.76033">
        <ele>142.6</ele>
        <time>2017-09-10T12:42:59Z</time>
      </trkpt>
      <trkpt lat="48.49973" lon="7.76041">
        <ele>143</ele>
        <time>2017-09-10T12:43:09Z</time>
      </trkpt>
      <trkpt lat="48.49989" lon="7.76053">
        <ele>143</ele>
        <time>2017-09-10T12:43:19Z</time>
      </trkpt>
      <trkpt lat="48.50007" lon="7.76057">
        <ele>143</ele>
        <time>2017-09-10T12:43:28Z</time>
      </trkpt>
      <trkpt lat="48.50027" lon="7.76059">
        <ele>143.1</ele>
        <time>2017-09-10T12:43:42Z</time>
      </trkpt>
      <trkpt lat="48.50046" lon="7.76063">
        <ele>142.8</ele>
        <time>2017-09-10T12:43:55Z</time>
      </trkpt>
      <trkpt lat="48.50064" lon="7.76061">
        <ele>142.6</ele>
        <time>2017-09-10T12:44:07Z</time>
      </trkpt>
      <trkpt lat="48.50082" lon="7.76064">
        <ele>143.3</ele>
        <time>2017-09-10T12:44:20Z</time>
      </trkpt>
      <trkpt lat="48.50101" lon="7.76058">
        <ele>142.5</ele>
        <time>2017-09-10T12:44:43Z</time>
      </trkpt>
      <trkpt lat="48.5012" lon="7.76059">
        <ele>142.5</ele>
        <time>2017-09-10T12:44:55Z</time>
      </trkpt>
      <trkpt lat="48.50139" lon="7.76063">
        <ele>143.3</ele>
        <time>2017-09-10T12:45:06Z</time>
      </trkpt>
      <trkpt lat="48.50158" lon="7.76062">
        <ele>143.2</ele>
        <time>2017-09-10T12:45:18Z</time>
      </trkpt>
      <trkpt lat="48.50177" lon="7.76056">
        <ele>143</ele>
        <time>2017-09-10T12:45:29Z</time>
      </trkpt>
      <trkpt lat="48.50193" lon="7.76041">
        <ele>143</ele>
        <time>2017-09-10T12:45:41Z</time>
      </trkpt>
      <trkpt lat="48.5021" lon="7.76027">
        <ele>143</ele>
        <time>2017-09-10T12:45:53Z</time>
      </trkpt>
      <trkpt lat="48.50225" lon="7.76007">
        <ele>143</ele>
        <time>2017-09-10T12:46:02Z</time>
      </trkpt>
      <trkpt lat="48.50239" lon="7.75987">
        <ele>142.9</ele>
        <time>2017-09-10T12:46:11Z</time>
      </trkpt>
      <trkpt lat="48.50256" lon="7.7597">
        <ele>142.3</ele>
        <time>2017-09-10T12:46:19Z</time>
      </trkpt>
      <trkpt lat="48.50274" lon="7.7596">
        <ele>143</ele>
        <time>2017-09-10T12:46:27Z</time>
      </trkpt>
      <trkpt lat="48.50293" lon="7.75952">
        <ele>143</ele>
        <time>2017-09-10T12:46:38Z</time>
      </trkpt>
      <trkpt lat="48.50312" lon="7.75947">
        <ele>143</ele>
        <time>2017-09-10T12:46:49Z</time>
      </trkpt>
      <trkpt lat="48.50331" lon="7.75942">
        <ele>143</ele>
        <time>2017-09-10T12:47:01Z</time>
      </trkpt>
      <trkpt lat="48.50348" lon="7.75934">
        <ele>143</ele>
        <time>2017-09-10T12:47:10Z</time>
      </trkpt>
      <trkpt lat="48.50367" lon="7.75932">
        <ele>143</ele>
        <time>2017-09-10T12:47:19Z</time>
      </trkpt>
      <trkpt lat="48.50386" lon="7.75926">
        <ele>143</ele>
        <time>2017-09-10T12:47:28Z</time>
      </trkpt>
      <trkpt lat="48.50405" lon="7.75921">
        <ele>142.5</ele>
        <time>2017-09-10T12:47:37Z</time>
      </trkpt>
      <trkpt lat="48.50424" lon="7.75917">
        <ele>142.3</ele>
        <time>2017-09-10T12:47:47Z</time>
      </trkpt>
      <trkpt lat="48.50442" lon="7.75911">
        <ele>142.9</ele>
        <time>2017-09-10T12:47:56Z</time>
      </trkpt>
      <trkpt lat="48.50461" lon="7.75906">
        <ele>143</ele>
        <time>2017-09-10T12:48:05Z</time>
      </trkpt>
      <trkpt lat="48.50479" lon="7.75901">
        <ele>142.9</ele>
        <time>2017-09-10T12:48:17Z</time>
      </trkpt>
      <trkpt lat="48.50495" lon="7.75884">
        <ele>142.3</ele>
        <time>2017-09-10T12:48:30Z</time>
      </trkpt>
      <trkpt lat="48.50513" lon="7.75871">
        <ele>142.5</ele>
        <time>2017-09-10T12:48:40Z</time>
      </trkpt>
      <trkpt lat="48.5053" lon="7.75859">
        <ele>142.2</ele>
        <time>2017-09-10T12:48:49Z</time>
      </trkpt>
      <trkpt lat="48.50546" lon="7.75845">
        <ele>142.8</ele>
        <time>2017-09-10T12:48:59Z</time>
      </trkpt>
      <trkpt lat="48.50561" lon="7.75829">
        <ele>142.3</ele>
        <time>2017-09-10T12:49:09Z</time>
      </trkpt>
      <trkpt lat="48.50575" lon="7.75812">
        <ele>142.9</ele>
        <time>2017-09-10T12:49:20Z</time>
      </trkpt>
      <trkpt lat="48.50586" lon="7.75789">
        <ele>143</ele>
        <time>2017-09-10T12:49:35Z</time>
      </trkpt>
      <trkpt lat="48.50599" lon="7.75769">
        <ele>142.8</ele>
        <time>2017-09-10T12:49:48Z</time>
      </trkpt>
      <trkpt lat="48.50614" lon="7.75749">
        <ele>142.1</ele>
        <time>2017-09-10T12:49:59Z</time>
      </trkpt>
      <trkpt lat="48.50627" lon="7.75729">
        <ele>142.9</ele>
        <time>2017-09-10T12:50:11Z</time>
      </trkpt>
      <trkpt lat="48.50641" lon="7.75711">
        <ele>143.1</ele>
        <time>2017-09-10T12:50:25Z</time>
      </trkpt>
      <trkpt lat="48.50657" lon="7.75697">
        <ele>143.1</ele>
        <time>2017-09-10T12:50:37Z</time>
      </trkpt>
      <trkpt lat="48.50673" lon="7.75683">
        <ele>143</ele>
        <time>2017-09-10T12:50:52Z</time>
      </trkpt>
      <trkpt lat="48.50687" lon="7.75665">
        <ele>143</ele>
        <time>2017-09-10T12:51:12Z</time>
      </trkpt>
      <trkpt lat="48.50698" lon="7.75641">
        <ele>142.9</ele>
        <time>2017-09-10T12:51:26Z</time>
      </trkpt>
      <trkpt lat="48.50709" lon="7.75619">
        <ele>142.8</ele>
        <time>2017-09-10T12:51:49Z</time>
      </trkpt>
      <trkpt lat="48.50719" lon="7.75596">
        <ele>142.5</ele>
        <time>2017-09-10T12:52:09Z</time>
      </trkpt>
      <trkpt lat="48.50737" lon="7.75592">
        <ele>142.7</ele>
        <time>2017-09-10T12:52:28Z</time>
      </trkpt>
      <trkpt lat="48.50756" lon="7.75595">
        <ele>143</ele>
        <time>2017-09-10T12:52:41Z</time>
      </trkpt>
      <trkpt lat="48.50775" lon="7.75592">
        <ele>143</ele>
        <time>2017-09-10T12:52:48Z</time>
      </trkpt>
      <trkpt lat="48.50793" lon="7.75593">
        <ele>143</ele>
        <time>2017-09-10T12:52:57Z</time>
      </trkpt>
      <trkpt lat="48.50811" lon="7.75602">
        <ele>142.9</ele>
        <time>2017-09-10T12:53:07Z</time>
      </trkpt>
      <trkpt lat="48.50829" lon="7.75611">
        <ele>142.2</ele>
        <time>2017-09-10T12:53:18Z</time>
      </trkpt>
      <trkpt lat="48.50847" lon="7.75622">
        <ele>142.5</ele>
        <time>2017-09-10T12:53:30Z</time>
      </trkpt>
      <trkpt lat="48.50862" lon="7.75641">
        <ele>142.1</ele>
        <time>2017-09-10T12:53:40Z</time>
      </trkpt>
      <trkpt lat="48.50873" lon="7.75662">
        <ele>142.9</ele>
        <time>2017-09-10T12:53:52Z</time>
      </trkpt>
      <trkpt lat="48.5088" lon="7.7569">
        <ele>143</ele>
        <time>2017-09-10T12:54:03Z</time>
      </trkpt>
      <trkpt lat="48.50876" lon="7.75717">
        <ele>143</ele>
        <time>2017-09-10T12:54:16Z</time>
      </trkpt>
      <trkpt lat="48.50867" lon="7.75741">
        <ele>143</ele>
        <time>2017-09-10T12:54:29Z</time>
      </trkpt>
      <trkpt lat="48.5086" lon="7.75768">
        <ele>142.4</ele>
        <time>2017-09-10T12:54:41Z</time>
      </trkpt>
      <trkpt lat="48.50854" lon="7.75794">
        <ele>142.6</ele>
        <time>2017-09-10T12:54:52Z</time>
      </trkpt>
      <trkpt lat="48.50846" lon="7.75819">
        <ele>143</ele>
        <time>2017-09-10T12:55:03Z</time>
      </trkpt>
      <trkpt lat="48.50835" lon="7.75841">
        <ele>143</ele>
        <time>2017-09-10T12:55:22Z</time>
      </trkpt>
      <trkpt lat="48.50827" lon="7.75866">
        <ele>143</ele>
        <time>2017-09-10T12:55:37Z</time>
      </trkpt>
      <trkpt lat="48.50819" lon="7.75891">
        <ele>142.5</ele>
        <time>2017-09-10T12:55:52Z</time>
      </trkpt>
      <trkpt lat="48.50824" lon="7.75917">
        <ele>142.3</ele>
        <time>2017-09-10T12:56:28Z</time>
      </trkpt>
      <trkpt lat="48.50838" lon="7.75934">
        <ele>142.7</ele>
        <time>2017-09-10T13:08:25Z</time>
      </trkpt>
      <trkpt lat="48.50852" lon="7.75951">
        <ele>142.9</ele>
        <time>2017-09-10T13:08:55Z</time>
      </trkpt>
      <trkpt lat="48.50865" lon="7.75972">
        <ele>143</ele>
        <time>2017-09-10T13:09:16Z</time>
      </trkpt>
      <trkpt lat="48.50882" lon="7.75984">
        <ele>143</ele>
        <time>2017-09-10T13:09:32Z</time>
      </trkpt>
      <trkpt lat="48.50898" lon="7.75997">
        <ele>142.7</ele>
        <time>2017-09-10T13:09:49Z</time>
      </trkpt>
      <trkpt lat="48.50916" lon="7.75996">
        <ele>142.1</ele>
        <time>2017-09-10T13:10:05Z</time>
      </trkpt>
      <trkpt lat="48.5093" lon="7.75977">
        <ele>142.9</ele>
        <time>2017-09-10T13:10:21Z</time>
      </trkpt>
      <trkpt lat="48.50944" lon="7.75958">
        <ele>142.5</ele>
        <time>2017-09-10T13:10:40Z</time>
      </trkpt>
      <trkpt lat="48.50962" lon="7.75952">
        <ele>142.3</ele>
        <time>2017-09-10T13:11:05Z</time>
      </trkpt>
      <trkpt lat="48.5098" lon="7.75945">
        <ele>142</ele>
        <time>2017-09-10T13:11:17Z</time>
      </trkpt>
      <trkpt lat="48.50997" lon="7.75934">
        <ele>142.4</ele>
        <time>2017-09-10T13:11:27Z</time>
      </trkpt>
      <trkpt lat="48.51016" lon="7.75929">
        <ele>142.5</ele>
        <time>2017-09-10T13:11:37Z</time>
      </trkpt>
      <trkpt lat="48.51035" lon="7.75932">
        <ele>142.5</ele>
        <time>2017-09-10T13:11:48Z</time>
      </trkpt>
      <trkpt lat="48.51054" lon="7.75937">
        <ele>142.3</ele>
        <time>2017-09-10T13:12:01Z</time>
      </trkpt>
      <trkpt lat="48.5107" lon="7.75949">
        <ele>142.5</ele>
        <time>2017-09-10T13:12:13Z</time>
      </trkpt>
      <trkpt lat="48.51087" lon="7.75964">
        <ele>143</ele>
        <time>2017-09-10T13:12:27Z</time>
      </trkpt>
      <trkpt lat="48.51099" lon="7.75985">
        <ele>142.5</ele>
        <time>2017-09-10T13:12:41Z</time>
      </trkpt>
      <trkpt lat="48.51111" lon="7.76007">
        <ele>142.3</ele>
        <time>2017-09-10T13:12:59Z</time>
      </trkpt>
      <trkpt lat="48.51118" lon="7.76033">
        <ele>142.9</ele>
        <time>2017-09-10T13:13:16Z</time>
      </trkpt>
      <trkpt lat="48.51132" lon="7.76052">
        <ele>142.8</ele>
        <time>2017-09-10T13:13:28Z</time>
      </trkpt>
      <trkpt lat="48.51149" lon="7.76062">
        <ele>142.9</ele>
        <time>2017-09-10T13:13:40Z</time>
      </trkpt>
      <trkpt lat="48.51167" lon="7.76067">
        <ele>142.6</ele>
        <time>2017-09-10T13:13:53Z</time>
      </trkpt>
      <trkpt lat="48.51186" lon="7.76068">
        <ele>142.5</ele>
        <time>2017-09-10T13:14:06Z</time>
      </trkpt>
      <trkpt lat="48.51199" lon="7.76088">
        <ele>142.8</ele>
        <time>2017-09-10T13:14:24Z</time>
      </trkpt>
      <trkpt lat="48.51206" lon="7.76113">
        <ele>142.4</ele>
        <time>2017-09-10T13:14:51Z</time>
      </trkpt>
      <trkpt lat="48.51214" lon="7.76139">
        <ele>142</ele>
        <time>2017-09-10T13:15:03Z</time>
      </trkpt>
      <trkpt lat="48.51221" lon="7.76165">
        <ele>142</ele>
        <time>2017-09-10T13:15:14Z</time>
      </trkpt>
      <trkpt lat="48.51227" lon="7.76193">
        <ele>142</ele>
        <time>2017-09-10T13:15:27Z</time>
      </trkpt>
      <trkpt lat="48.51234" lon="7.76219">
        <ele>142</ele>
        <time>2017-09-10T13:15:37Z</time>
      </trkpt>
      <trkpt lat="48.5124" lon="7.76244">
        <ele>142</ele>
        <time>2017-09-10T13:15:49Z</time>
      </trkpt>
      <trkpt lat="48.51251" lon="7.76268">
        <ele>142.6</ele>
        <time>2017-09-10T13:16:06Z</time>
      </trkpt>
      <trkpt lat="48.51269" lon="7.76279">
        <ele>142.3</ele>
        <time>2017-09-10T13:16:20Z</time>
      </trkpt>
      <trkpt lat="48.51286" lon="7.76289">
        <ele>142</ele>
        <time>2017-09-10T13:16:31Z</time>
      </trkpt>
      <trkpt lat="48.51304" lon="7.76298">
        <ele>142</ele>
        <time>2017-09-10T13:16:41Z</time>
      </trkpt>
      <trkpt lat="48.51321" lon="7.76307">
        <ele>142</ele>
        <time>2017-09-10T13:16:51Z</time>
      </trkpt>
      <trkpt lat="48.51339" lon="7.76313">
        <ele>142.1</ele>
        <time>2017-09-10T13:17:01Z</time>
      </trkpt>
      <trkpt lat="48.51357" lon="7.76316">
        <ele>142.5</ele>
        <time>2017-09-10T13:17:14Z</time>
      </trkpt>
      <trkpt lat="48.51376" lon="7.76321">
        <ele>142.2</ele>
        <time>2017-09-10T13:17:28Z</time>
      </trkpt>
      <trkpt lat="48.51394" lon="7.76326">
        <ele>142</ele>
        <time>2017-09-10T13:17:41Z</time>
      </trkpt>
      <trkpt lat="48.51412" lon="7.7633">
        <ele>142</ele>
        <time>2017-09-10T13:17:57Z</time>
      </trkpt>
      <trkpt lat="48.51431" lon="7.76334">
        <ele>142</ele>
        <time>2017-09-10T13:18:12Z</time>
      </trkpt>
      <trkpt lat="48.5145" lon="7.76333">
        <ele>142</ele>
        <time>2017-09-10T13:18:24Z</time>
      </trkpt>
      <trkpt lat="48.51469" lon="7.76334">
        <ele>142</ele>
        <time>2017-09-10T13:18:38Z</time>
      </trkpt>
      <trkpt lat="48.51488" lon="7.76331">
        <ele>142</ele>
        <time>2017-09-10T13:18:49Z</time>
      </trkpt>
      <trkpt lat="48.51506" lon="7.76323">
        <ele>142</ele>
        <time>2017-09-10T13:19:00Z</time>
      </trkpt>
      <trkpt lat="48.51523" lon="7.76314">
        <ele>142</ele>
        <time>2017-09-10T13:19:11Z</time>
      </trkpt>
      <trkpt lat="48.51541" lon="7.76305">
        <ele>142</ele>
        <time>2017-09-10T13:19:22Z</time>
      </trkpt>
      <trkpt lat="48.51558" lon="7.76294">
        <ele>142</ele>
        <time>2017-09-10T13:19:32Z</time>
      </trkpt>
      <trkpt lat="48.51576" lon="7.76305">
        <ele>142</ele>
        <time>2017-09-10T13:19:47Z</time>
      </trkpt>
      <trkpt lat="48.51587" lon="7.76327">
        <ele>142</ele>
        <time>2017-09-10T13:20:04Z</time>
      </trkpt>
      <trkpt lat="48.51597" lon="7.76351">
        <ele>142</ele>
        <time>2017-09-10T13:20:17Z</time>
      </trkpt>
      <trkpt lat="48.516" lon="7.7638">
        <ele>142</ele>
        <time>2017-09-10T13:20:30Z</time>
      </trkpt>
      <trkpt lat="48.51598" lon="7.76407">
        <ele>142</ele>
        <time>2017-09-10T13:20:48Z</time>
      </trkpt>
      <trkpt lat="48.51585" lon="7.76428">
        <ele>142</ele>
        <time>2017-09-10T13:21:03Z</time>
      </trkpt>
      <trkpt lat="48.5157" lon="7.76444">
        <ele>142</ele>
        <time>2017-09-10T13:21:14Z</time>
      </trkpt>
      <trkpt lat="48.51556" lon="7.76464">
        <ele>142</ele>
        <time>2017-09-10T13:21:30Z</time>
      </trkpt>
      <trkpt lat="48.51543" lon="7.76485">
        <ele>142</ele>
        <time>2017-09-10T13:21:45Z</time>
      </trkpt>
      <trkpt lat="48.51534" lon="7.76511">
        <ele>142</ele>
        <time>2017-09-10T13:21:56Z</time>
      </trkpt>
      <trkpt lat="48.51533" lon="7.76539">
        <ele>142</ele>
        <time>2017-09-10T13:22:05Z</time>
      </trkpt>
      <trkpt lat="48.51542" lon="7.76564">
        <ele>142</ele>
        <time>2017-09-10T13:22:16Z</time>
      </trkpt>
      <trkpt lat="48.51553" lon="7.76588">
        <ele>142</ele>
        <time>2017-09-10T13:22:27Z</time>
      </trkpt>
      <trkpt lat="48.51565" lon="7.7661">
        <ele>142</ele>
        <time>2017-09-10T13:22:38Z</time>
      </trkpt>
      <trkpt lat="48.51578" lon="7.7663">
        <ele>142</ele>
        <time>2017-09-10T13:22:51Z</time>
      </trkpt>
      <trkpt lat="48.5159" lon="7.76652">
        <ele>142.1</ele>
        <time>2017-09-10T13:23:04Z</time>
      </trkpt>
      <trkpt lat="48.51606" lon="7.76667">
        <ele>142</ele>
        <time>2017-09-10T13:23:18Z</time>
      </trkpt>
      <trkpt lat="48.51622" lon="7.76653">
        <ele>142.3</ele>
        <time>2017-09-10T13:23:38Z</time>
      </trkpt>
      <trkpt lat="48.5163" lon="7.76626">
        <ele>142.2</ele>
        <time>2017-09-10T13:23:52Z</time>
      </trkpt>
      <trkpt lat="48.51635" lon="7.766">
        <ele>142</ele>
        <time>2017-09-10T13:24:05Z</time>
      </trkpt>
      <trkpt lat="48.51646" lon="7.76577">
        <ele>142</ele>
        <time>2017-09-10T13:24:21Z</time>
      </trkpt>
      <trkpt lat="48.51663" lon="7.76566">
        <ele>142</ele>
        <time>2017-09-10T13:24:37Z</time>
      </trkpt>
      <trkpt lat="48.5168" lon="7.76558">
        <ele>142</ele>
        <time>2017-09-10T13:25:28Z</time>
      </trkpt>
      <trkpt lat="48.51694" lon="7.7654">
        <ele>142</ele>
        <time>2017-09-10T13:26:21Z</time>
      </trkpt>
      <trkpt lat="48.51704" lon="7.76517">
        <ele>142</ele>
        <time>2017-09-10T13:26:40Z</time>
      </trkpt>
      <trkpt lat="48.51713" lon="7.76493">
        <ele>142</ele>
        <time>2017-09-10T13:26:55Z</time>
      </trkpt>
      <trkpt lat="48.51724" lon="7.76468">
        <ele>142</ele>
        <time>2017-09-10T13:27:08Z</time>
      </trkpt>
      <trkpt lat="48.51733" lon="7.76444">
        <ele>142.4</ele>
        <time>2017-09-10T13:27:20Z</time>
      </trkpt>
      <trkpt lat="48.5175" lon="7.76432">
        <ele>142.5</ele>
        <time>2017-09-10T13:27:37Z</time>
      </trkpt>
      <trkpt lat="48.51768" lon="7.76439">
        <ele>142.3</ele>
        <time>2017-09-10T13:27:51Z</time>
      </trkpt>
      <trkpt lat="48.51786" lon="7.76443">
        <ele>142</ele>
        <time>2017-09-10T13:28:07Z</time>
      </trkpt>
      <trkpt lat="48.51803" lon="7.76429">
        <ele>142</ele>
        <time>2017-09-10T13:28:23Z</time>
      </trkpt>
      <trkpt lat="48.51814" lon="7.76404">
        <ele>142.2</ele>
        <time>2017-09-10T13:28:36Z</time>
      </trkpt>
      <trkpt lat="48.51823" lon="7.7638">
        <ele>142</ele>
        <time>2017-09-10T13:28:47Z</time>
      </trkpt>
      <trkpt lat="48.51832" lon="7.76355">
        <ele>142</ele>
        <time>2017-09-10T13:28:58Z</time>
      </trkpt>
      <trkpt lat="48.51837" lon="7.76329">
        <ele>142</ele>
        <time>2017-09-10T13:29:10Z</time>
      </trkpt>
      <trkpt lat="48.5184" lon="7.76301">
        <ele>142</ele>
        <time>2017-09-10T13:29:24Z</time>
      </trkpt>
      <trkpt lat="48.51843" lon="7.76273">
        <ele>142</ele>
        <time>2017-09-10T13:29:37Z</time>
      </trkpt>
      <trkpt lat="48.51845" lon="7.76246">
        <ele>142</ele>
        <time>2017-09-10T13:29:49Z</time>
      </trkpt>
      <trkpt lat="48.51843" lon="7.76217">
        <ele>142.1</ele>
        <time>2017-09-10T13:30:01Z</time>
      </trkpt>
      <trkpt lat="48.51839" lon="7.76188">
        <ele>142.5</ele>
        <time>2017-09-10T13:30:13Z</time>
      </trkpt>
      <trkpt lat="48.51839" lon="7.76161">
        <ele>141.8</ele>
        <time>2017-09-10T13:30:27Z</time>
      </trkpt>
      <trkpt lat="48.51838" lon="7.76133">
        <ele>141.8</ele>
        <time>2017-09-10T13:30:43Z</time>
      </trkpt>
      <trkpt lat="48.5184" lon="7.76104">
        <ele>141.8</ele>
        <time>2017-09-10T13:30:56Z</time>
      </trkpt>
      <trkpt lat="48.51846" lon="7.76077">
        <ele>142</ele>
        <time>2017-09-10T13:31:08Z</time>
      </trkpt>
      <trkpt lat="48.51849" lon="7.76049">
        <ele>142</ele>
        <time>2017-09-10T13:31:20Z</time>
      </trkpt>
      <trkpt lat="48.51859" lon="7.76027">
        <ele>142</ele>
        <time>2017-09-10T13:31:33Z</time>
      </trkpt>
      <trkpt lat="48.5187" lon="7.76004">
        <ele>142</ele>
        <time>2017-09-10T13:31:46Z</time>
      </trkpt>
      <trkpt lat="48.51884" lon="7.75985">
        <ele>142</ele>
        <time>2017-09-10T13:32:01Z</time>
      </trkpt>
      <trkpt lat="48.519" lon="7.75971">
        <ele>142</ele>
        <time>2017-09-10T13:32:14Z</time>
      </trkpt>
      <trkpt lat="48.51918" lon="7.75962">
        <ele>142</ele>
        <time>2017-09-10T13:32:26Z</time>
      </trkpt>
      <trkpt lat="48.51937" lon="7.75961">
        <ele>142</ele>
        <time>2017-09-10T13:32:38Z</time>
      </trkpt>
      <trkpt lat="48.51955" lon="7.75964">
        <ele>142</ele>
        <time>2017-09-10T13:32:53Z</time>
      </trkpt>
      <trkpt lat="48.51973" lon="7.75967">
        <ele>142</ele>
        <time>2017-09-10T13:33:06Z</time>
      </trkpt>
      <trkpt lat="48.5199" lon="7.75976">
        <ele>142</ele>
        <time>2017-09-10T13:33:16Z</time>
      </trkpt>
      <trkpt lat="48.52008" lon="7.75974">
        <ele>142</ele>
        <time>2017-09-10T13:33:34Z</time>
      </trkpt>
      <trkpt lat="48.52027" lon="7.75973">
        <ele>142</ele>
        <time>2017-09-10T13:33:48Z</time>
      </trkpt>
      <trkpt lat="48.52046" lon="7.75969">
        <ele>142</ele>
        <time>2017-09-10T13:34:02Z</time>
      </trkpt>
      <trkpt lat="48.52065" lon="7.75971">
        <ele>142</ele>
        <time>2017-09-10T13:34:17Z</time>
      </trkpt>
      <trkpt lat="48.52078" lon="7.7599">
        <ele>142</ele>
        <time>2017-09-10T13:34:33Z</time>
      </trkpt>
      <trkpt lat="48.52084" lon="7.76016">
        <ele>142</ele>
        <time>2017-09-10T13:34:45Z</time>
      </trkpt>
      <trkpt lat="48.52089" lon="7.76043">
        <ele>142</ele>
        <time>2017-09-10T13:34:56Z</time>
      </trkpt>
      <trkpt lat="48.52094" lon="7.7607">
        <ele>142</ele>
        <time>2017-09-10T13:35:12Z</time>
      </trkpt>
      <trkpt lat="48.52098" lon="7.76098">
        <ele>142</ele>
        <time>2017-09-10T13:35:28Z</time>
      </trkpt>
      <trkpt lat="48.52095" lon="7.76126">
        <ele>142</ele>
        <time>2017-09-10T13:35:41Z</time>
      </trkpt>
      <trkpt lat="48.52096" lon="7.76154">
        <ele>142</ele>
        <time>2017-09-10T13:35:56Z</time>
      </trkpt>
      <trkpt lat="48.52095" lon="7.76182">
        <ele>142</ele>
        <time>2017-09-10T13:36:08Z</time>
      </trkpt>
      <trkpt lat="48.52094" lon="7.76209">
        <ele>142</ele>
        <time>2017-09-10T13:36:23Z</time>
      </trkpt>
      <trkpt lat="48.52105" lon="7.76231">
        <ele>142</ele>
        <time>2017-09-10T13:36:48Z</time>
      </trkpt>
      <trkpt lat="48.52119" lon="7.76254">
        <ele>142</ele>
        <time>2017-09-10T13:37:06Z</time>
      </trkpt>
      <trkpt lat="48.52133" lon="7.7627">
        <ele>142</ele>
        <time>2017-09-10T13:37:16Z</time>
      </trkpt>
      <trkpt lat="48.5215" lon="7.76281">
        <ele>142.1</ele>
        <time>2017-09-10T13:37:25Z</time>
      </trkpt>
      <trkpt lat="48.52166" lon="7.76295">
        <ele>142</ele>
        <time>2017-09-10T13:37:35Z</time>
      </trkpt>
      <trkpt lat="48.52184" lon="7.76307">
        <ele>142</ele>
        <time>2017-09-10T13:37:46Z</time>
      </trkpt>
      <trkpt lat="48.52203" lon="7.76311">
        <ele>142.1</ele>
        <time>2017-09-10T13:37:58Z</time>
      </trkpt>
      <trkpt lat="48.52222" lon="7.76316">
        <ele>142.4</ele>
        <time>2017-09-10T13:38:09Z</time>
      </trkpt>
      <trkpt lat="48.5224" lon="7.76322">
        <ele>142</ele>
        <time>2017-09-10T13:38:21Z</time>
      </trkpt>
      <trkpt lat="48.52259" lon="7.76323">
        <ele>142</ele>
        <time>2017-09-10T13:38:33Z</time>
      </trkpt>
      <trkpt lat="48.52278" lon="7.76322">
        <ele>142.6</ele>
        <time>2017-09-10T13:38:48Z</time>
      </trkpt>
      <trkpt lat="48.52296" lon="7.76317">
        <ele>142.4</ele>
        <time>2017-09-10T13:39:00Z</time>
      </trkpt>
      <trkpt lat="48.52314" lon="7.76303">
        <ele>142.3</ele>
        <time>2017-09-10T13:39:12Z</time>
      </trkpt>
      <trkpt lat="48.52329" lon="7.76287">
        <ele>142.3</ele>
        <time>2017-09-10T13:39:24Z</time>
      </trkpt>
      <trkpt lat="48.52344" lon="7.76271">
        <ele>142.1</ele>
        <time>2017-09-10T13:39:36Z</time>
      </trkpt>
      <trkpt lat="48.52358" lon="7.76252">
        <ele>142</ele>
        <time>2017-09-10T13:39:50Z</time>
      </trkpt>
      <trkpt lat="48.52372" lon="7.76232">
        <ele>142.4</ele>
        <time>2017-09-10T13:40:03Z</time>
      </trkpt>
      <trkpt lat="48.52383" lon="7.7621">
        <ele>142.3</ele>
        <time>2017-09-10T13:40:17Z</time>
      </trkpt>
      <trkpt lat="48.52396" lon="7.7619">
        <ele>142.2</ele>
        <time>2017-09-10T13:41:21Z</time>
      </trkpt>
      <trkpt lat="48.52399" lon="7.76217">
        <ele>142.6</ele>
        <time>2017-09-10T13:47:21Z</time>
      </trkpt>
    </trkseg>
  </trk>
</gpx>